Dirección General De Aeronáutica Civil

Dirección Meteorológica de Chile - Servicios Climáticos

Informe General de Control de Calidad de la Estación

Listado de niveles de control de calidad para algunos parámetros
Estación Guardiamarina Zañartu, Pto Williams Ad. (550001)
Fecha de Revisión de los datos :

Elementos

Registros Niveles de Control Total
Nivel 0 Nivel 1 Nivel 2 Nivel 3 Errores Porcentaje
01 Temperatura del Aire Seco 203.160 0 . 908 0.45 % 0 . 0 . 908 0.45 %
02 Temperatura de Rocío 156.489 0 . 0 . 0 . 0 . 0 0.00 %
03 Humedad Relativa del Aire 205.776 0 . 0 . 0 . 0 . 0 0.00 %
04 Temperatura Máxima PM 17.531 0 . 0 . 758 4.32 % 0 . 758 4.32 %
05 Temperatura Mínima AM 17.289 0 . 0 . 376 2.17 % 0 . 376 2.17 %
06 Viento a 10 m. de Altura 212.832 5 0.00 % 0 . 18 0.01 % 0 . 23 0.01 %
07 Agua Caida, Acumulada 6 Horas 73.427 0 . 892 1.21 % 0 . 0 . 892 1.21 %
08 Presión Atm. a Nivel de Estación (QFE) 205.305 0 . 1 0.00 % 0 . 0 . 1 0.00 %
09 Presión Atm. a Nivel Medio del Mar (QFF) 197.926 0 . 0 . 0 . 0 . 0 0.00 %
10 Presión Atm. Estándar OACI (QNH) 159.405 0 . 0 . 0 . 0 . 0 0.00 %
11 Tiempo Pasado Sinóptico 12.931 0 . 0 . 0 . 0 . 0 0.00 %
12 Tiempo Presente Sinóptico 12.940 0 . 6 0.05 % 0 . 0 . 6 0.05 %

Totales

1.475.011 . 0.0003 % . 0.1225 % . 0.0781 % . 0.0000 % 2,964 0.2009 %

Detalle de Errores Encontrados

Nivel Fecha del Dato Descripción Información Error Fecha Ingreso
0 1970-04-14 06:00:00 ff (Intensidad del Viento) debe ser numerico, entre 0 y 70 kt. 72 2011-09-28 17:34:00
0 1973-06-12 00:00:00 ff (Intensidad del Viento) debe ser numerico, entre 0 y 70 kt. 80 2011-09-28 17:46:00
0 1974-04-19 03:00:00 ff (Intensidad del Viento) debe ser numerico, entre 0 y 70 kt. 80 2011-09-28 17:49:00
0 1978-01-28 00:00:00 ff (Intensidad del Viento) debe ser numerico, entre 0 y 70 kt. 72 2011-09-28 18:04:00
0 1990-10-12 12:00:00 ff (Intensidad del Viento) debe ser numerico, entre 0 y 70 kt. 72 2011-09-28 18:40:00
Errores del Nivel 5
Nivel Fecha del Dato Descripción Información Error Fecha Ingreso
1 1969-02-04 18:00:00 Ts debe ser mayor o igual a Td Ts=1.5 - Td=17.8 2011-09-30 11:32:00
1 1969-04-15 09:00:00 Ts debe ser mayor o igual a Td Ts=-0.8 - Td=0.0 2011-09-30 11:33:00
1 1969-05-24 21:00:00 Ts debe ser mayor o igual a Td Ts=-1.0 - Td=0.0 2011-09-30 11:33:00
1 1969-05-25 09:00:00 Ts debe ser mayor o igual a Td Ts=-5.4 - Td=-4.2 2011-09-30 11:33:00
1 1969-05-25 12:00:00 Ts debe ser mayor o igual a Td Ts=-5.0 - Td=4.4 2011-09-30 11:33:00
1 1969-05-25 18:00:00 Ts debe ser mayor o igual a Td Ts=0.0 - Td=1.0 2011-09-30 11:33:00
1 1970-01-01 06:00:00 Ts debe ser mayor o igual a Td Ts=6.0 - Td=12.5 2011-09-30 11:34:00
1 1970-01-01 06:00:00 Ts debe ser mayor o igual a Td Ts=6.0 - Td=12.5 2011-09-30 11:34:00
1 1970-02-09 12:00:00 Ts debe ser mayor o igual a Td Ts=4.5 - Td=9.3 2011-09-30 11:34:00
1 1970-02-24 21:00:00 Ts debe ser mayor o igual a Td Ts=17.2 - Td=19.9 2011-09-30 11:35:00
1 1970-02-28 06:00:00 Ts debe ser mayor o igual a Td Ts=3.6 - Td=8.3 2011-09-30 11:35:00
1 1970-03-06 18:00:00 Ts debe ser mayor o igual a Td Ts=6.8 - Td=10.1 2011-09-30 11:35:00
1 1970-04-02 09:00:00 Ts debe ser mayor o igual a Td Ts=0.6 - Td=9.2 2011-09-30 11:35:00
1 1970-04-02 12:00:00 Ts debe ser mayor o igual a Td Ts=0.6 - Td=8.4 2011-09-30 11:35:00
1 1970-04-02 18:00:00 Ts debe ser mayor o igual a Td Ts=1.0 - Td=13.4 2011-09-30 11:35:00
1 1970-04-03 15:00:00 Ts debe ser mayor o igual a Td Ts=0.9 - Td=12.0 2011-09-30 11:35:00
1 1970-04-05 03:00:00 Ts debe ser mayor o igual a Td Ts=1.0 - Td=13.4 2011-09-30 11:35:00
1 1970-04-07 18:00:00 Ts debe ser mayor o igual a Td Ts=1.2 - Td=15.2 2011-09-30 11:35:00
1 1970-04-07 21:00:00 Ts debe ser mayor o igual a Td Ts=1.2 - Td=15.2 2011-09-30 11:35:00
1 1970-04-08 00:00:00 Ts debe ser mayor o igual a Td Ts=1.0 - Td=8.8 2011-09-30 11:35:00
1 1970-04-12 18:00:00 Ts debe ser mayor o igual a Td Ts=5.8 - Td=12.8 2011-09-30 11:35:00
1 1970-04-13 06:00:00 Ts debe ser mayor o igual a Td Ts=-0.6 - Td=1.3 2011-09-30 11:35:00
1 1970-04-13 09:00:00 Ts debe ser mayor o igual a Td Ts=0.6 - Td=9.3 2011-09-30 11:35:00
1 1970-04-13 18:00:00 Ts debe ser mayor o igual a Td Ts=2.0 - Td=15.5 2011-09-30 11:35:00
1 1970-04-16 12:00:00 Ts debe ser mayor o igual a Td Ts=4.4 - Td=5.6 2011-09-30 11:35:00
1 1970-04-19 15:00:00 Ts debe ser mayor o igual a Td Ts=5.0 - Td=5.4 2011-09-30 11:35:00
1 1970-04-21 18:00:00 Ts debe ser mayor o igual a Td Ts=5.8 - Td=10.6 2011-09-30 11:35:00
1 1970-04-23 09:00:00 Ts debe ser mayor o igual a Td Ts=-0.2 - Td=1.2 2011-09-30 11:35:00
1 1970-04-27 06:00:00 Ts debe ser mayor o igual a Td Ts=-0.8 - Td=2.0 2011-09-30 11:35:00
1 1970-05-03 15:00:00 Ts debe ser mayor o igual a Td Ts=3.8 - Td=6.6 2011-09-30 11:35:00
1 1970-05-07 06:00:00 Ts debe ser mayor o igual a Td Ts=-0.4 - Td=0.6 2011-09-30 11:35:00
1 1970-05-08 00:00:00 Ts debe ser mayor o igual a Td Ts=0.5 - Td=1.2 2011-09-30 11:35:00
1 1970-05-09 06:00:00 Ts debe ser mayor o igual a Td Ts=-3.2 - Td=-2.7 2011-09-30 11:35:00
1 1970-05-09 09:00:00 Ts debe ser mayor o igual a Td Ts=-2.6 - Td=3.4 2011-09-30 11:35:00
1 1970-05-09 18:00:00 Ts debe ser mayor o igual a Td Ts=-1.0 - Td=1.2 2011-09-30 11:35:00
1 1970-05-09 21:00:00 Ts debe ser mayor o igual a Td Ts=-1.0 - Td=-0.5 2011-09-30 11:35:00
1 1970-05-10 06:00:00 Ts debe ser mayor o igual a Td Ts=-0.4 - Td=0.1 2011-09-30 11:35:00
1 1970-05-13 06:00:00 Ts debe ser mayor o igual a Td Ts=0.0 - Td=1.0 2011-09-30 11:35:00
1 1970-05-14 06:00:00 Ts debe ser mayor o igual a Td Ts=0.0 - Td=0.5 2011-09-30 11:35:00
1 1970-05-14 18:00:00 Ts debe ser mayor o igual a Td Ts=0.2 - Td=1.2 2011-09-30 11:35:00
1 1970-05-16 03:00:00 Ts debe ser mayor o igual a Td Ts=-1.2 - Td=6.6 2011-09-30 11:35:00
1 1970-05-16 06:00:00 Ts debe ser mayor o igual a Td Ts=-5.1 - Td=-2.0 2011-09-30 11:35:00
1 1970-05-16 09:00:00 Ts debe ser mayor o igual a Td Ts=-4.2 - Td=1.8 2011-09-30 11:35:00
1 1970-05-16 12:00:00 Ts debe ser mayor o igual a Td Ts=-4.5 - Td=-0.4 2011-09-30 11:35:00
1 1970-05-17 00:00:00 Ts debe ser mayor o igual a Td Ts=-3.4 - Td=-2.8 2011-09-30 11:35:00
1 1970-05-18 09:00:00 Ts debe ser mayor o igual a Td Ts=-1.6 - Td=4.7 2011-09-30 11:35:00
1 1970-05-19 09:00:00 Ts debe ser mayor o igual a Td Ts=1.8 - Td=7.5 2011-09-30 11:35:00
1 1970-05-21 12:00:00 Ts debe ser mayor o igual a Td Ts=-1.0 - Td=1.0 2011-09-30 11:35:00
1 1970-05-22 00:00:00 Ts debe ser mayor o igual a Td Ts=-2.2 - Td=7.1 2011-09-30 11:35:00
1 1970-05-22 12:00:00 Ts debe ser mayor o igual a Td Ts=-2.0 - Td=-1.5 2011-09-30 11:35:00
1 1970-05-23 03:00:00 Ts debe ser mayor o igual a Td Ts=-0.1 - Td=0.6 2011-09-30 11:35:00
1 1970-05-25 12:00:00 Ts debe ser mayor o igual a Td Ts=0.2 - Td=1.6 2011-09-30 11:35:00
1 1970-05-27 00:00:00 Ts debe ser mayor o igual a Td Ts=0.0 - Td=2.8 2011-09-30 11:35:00
1 1970-05-27 06:00:00 Ts debe ser mayor o igual a Td Ts=-1.2 - Td=1.2 2011-09-30 11:35:00
1 1970-05-27 09:00:00 Ts debe ser mayor o igual a Td Ts=-2.0 - Td=2.3 2011-09-30 11:35:00
1 1970-05-27 15:00:00 Ts debe ser mayor o igual a Td Ts=-1.2 - Td=1.2 2011-09-30 11:35:00
1 1970-05-30 06:00:00 Ts debe ser mayor o igual a Td Ts=-0.6 - Td=0.4 2011-09-30 11:35:00
1 1970-05-30 09:00:00 Ts debe ser mayor o igual a Td Ts=-1.6 - Td=1.8 2011-09-30 11:35:00
1 1970-06-04 00:00:00 Ts debe ser mayor o igual a Td Ts=0.2 - Td=3.4 2011-09-30 11:35:00
1 1970-06-06 09:00:00 Ts debe ser mayor o igual a Td Ts=-0.5 - Td=-0.3 2011-09-30 11:35:00
1 1970-06-09 00:00:00 Ts debe ser mayor o igual a Td Ts=-1.0 - Td=4.4 2011-09-30 11:35:00
1 1970-06-09 03:00:00 Ts debe ser mayor o igual a Td Ts=-1.6 - Td=5.8 2011-09-30 11:35:00
1 1970-06-09 09:00:00 Ts debe ser mayor o igual a Td Ts=-2.0 - Td=1.9 2011-09-30 11:35:00
1 1970-06-09 12:00:00 Ts debe ser mayor o igual a Td Ts=-0.8 - Td=0.2 2011-09-30 11:35:00
1 1970-06-12 09:00:00 Ts debe ser mayor o igual a Td Ts=0.2 - Td=0.7 2011-09-30 11:35:00
1 1970-06-16 21:00:00 Ts debe ser mayor o igual a Td Ts=0.0 - Td=1.0 2011-09-30 11:35:00
1 1970-06-18 06:00:00 Ts debe ser mayor o igual a Td Ts=-2.0 - Td=2.8 2011-09-30 11:35:00
1 1970-06-18 21:00:00 Ts debe ser mayor o igual a Td Ts=-0.2 - Td=0.3 2011-09-30 11:35:00
1 1970-06-28 03:00:00 Ts debe ser mayor o igual a Td Ts=0.0 - Td=0.5 2011-09-30 11:36:00
1 1970-07-01 03:00:00 Ts debe ser mayor o igual a Td Ts=-2.0 - Td=2.6 2011-09-30 11:36:00
1 1970-07-01 06:00:00 Ts debe ser mayor o igual a Td Ts=-3.0 - Td=2.4 2011-09-30 11:36:00
1 1970-07-02 03:00:00 Ts debe ser mayor o igual a Td Ts=-1.0 - Td=1.4 2011-09-30 11:36:00
1 1970-07-04 00:00:00 Ts debe ser mayor o igual a Td Ts=3.2 - Td=15.5 2011-09-30 11:36:00
1 1970-07-04 21:00:00 Ts debe ser mayor o igual a Td Ts=-1.6 - Td=2.2 2011-09-30 11:36:00
1 1970-07-26 06:00:00 Ts debe ser mayor o igual a Td Ts=-3.0 - Td=7.6 2011-09-30 11:36:00
1 1970-07-26 09:00:00 Ts debe ser mayor o igual a Td Ts=-1.4 - Td=2.0 2011-09-30 11:36:00
1 1970-07-26 12:00:00 Ts debe ser mayor o igual a Td Ts=-3.0 - Td=3.6 2011-09-30 11:36:00
1 1970-07-27 09:00:00 Ts debe ser mayor o igual a Td Ts=-2.0 - Td=8.2 2011-09-30 11:36:00
1 1970-07-30 06:00:00 Ts debe ser mayor o igual a Td Ts=-2.6 - Td=3.4 2011-09-30 11:36:00
1 1970-07-30 15:00:00 Ts debe ser mayor o igual a Td Ts=-0.4 - Td=0.6 2011-09-30 11:36:00
1 1970-08-02 12:00:00 Ts debe ser mayor o igual a Td Ts=0.4 - Td=6.3 2011-09-30 11:36:00
1 1970-08-03 09:00:00 Ts debe ser mayor o igual a Td Ts=-1.2 - Td=1.3 2011-09-30 11:36:00
1 1970-08-03 12:00:00 Ts debe ser mayor o igual a Td Ts=-2.6 - Td=2.7 2011-09-30 11:36:00
1 1970-08-05 03:00:00 Ts debe ser mayor o igual a Td Ts=1.2 - Td=1.7 2011-09-30 11:36:00
1 1970-08-05 15:00:00 Ts debe ser mayor o igual a Td Ts=3.4 - Td=9.3 2011-09-30 11:36:00
1 1970-08-07 09:00:00 Ts debe ser mayor o igual a Td Ts=0.4 - Td=4.6 2011-09-30 11:36:00
1 1970-08-07 12:00:00 Ts debe ser mayor o igual a Td Ts=0.3 - Td=2.4 2011-09-30 11:36:00
1 1970-08-07 15:00:00 Ts debe ser mayor o igual a Td Ts=0.3 - Td=3.3 2011-09-30 11:36:00
1 1970-08-10 12:00:00 Ts debe ser mayor o igual a Td Ts=-0.4 - Td=0.6 2011-09-30 11:36:00
1 1970-08-12 06:00:00 Ts debe ser mayor o igual a Td Ts=-0.2 - Td=0.8 2011-09-30 11:36:00
1 1970-08-18 09:00:00 Ts debe ser mayor o igual a Td Ts=-0.6 - Td=0.9 2011-09-30 11:36:00
1 1970-08-18 12:00:00 Ts debe ser mayor o igual a Td Ts=-1.8 - Td=2.0 2011-09-30 11:36:00
1 1970-08-19 00:00:00 Ts debe ser mayor o igual a Td Ts=4.2 - Td=21.8 2011-09-30 11:36:00
1 1970-08-22 12:00:00 Ts debe ser mayor o igual a Td Ts=-0.4 - Td=0.6 2011-09-30 11:36:00
1 1970-08-24 00:00:00 Ts debe ser mayor o igual a Td Ts=0.0 - Td=1.9 2011-09-30 11:36:00
1 1970-08-24 03:00:00 Ts debe ser mayor o igual a Td Ts=-0.6 - Td=0.9 2011-09-30 11:36:00
1 1970-08-24 06:00:00 Ts debe ser mayor o igual a Td Ts=-2.5 - Td=2.7 2011-09-30 11:36:00
1 1970-09-03 21:00:00 Ts debe ser mayor o igual a Td Ts=1.0 - Td=12.3 2011-09-30 11:36:00
1 1970-09-11 15:00:00 Ts debe ser mayor o igual a Td Ts=0.7 - Td=8.8 2011-09-30 11:36:00
1 1970-09-13 18:00:00 Ts debe ser mayor o igual a Td Ts=1.0 - Td=12.0 2011-09-30 11:36:00
1 1970-09-15 06:00:00 Ts debe ser mayor o igual a Td Ts=-1.4 - Td=2.0 2011-09-30 11:36:00
1 1970-09-19 18:00:00 Ts debe ser mayor o igual a Td Ts=3.7 - Td=5.8 2011-09-30 11:36:00
1 1970-10-04 00:00:00 Ts debe ser mayor o igual a Td Ts=4.1 - Td=9.8 2011-09-30 11:36:00
1 1970-10-04 03:00:00 Ts debe ser mayor o igual a Td Ts=4.2 - Td=6.0 2011-09-30 11:36:00
1 1970-10-10 06:00:00 Ts debe ser mayor o igual a Td Ts=0.1 - Td=0.3 2011-09-30 11:36:00
1 1970-10-13 21:00:00 Ts debe ser mayor o igual a Td Ts=1.1 - Td=13.6 2011-09-30 11:36:00
1 1970-10-14 15:00:00 Ts debe ser mayor o igual a Td Ts=1.2 - Td=14.1 2011-09-30 11:36:00
1 1970-10-17 06:00:00 Ts debe ser mayor o igual a Td Ts=0.6 - Td=7.9 2011-09-30 11:36:00
1 1970-10-18 09:00:00 Ts debe ser mayor o igual a Td Ts=10.2 - Td=11.3 2011-09-30 11:36:00
1 1970-10-21 06:00:00 Ts debe ser mayor o igual a Td Ts=0.3 - Td=4.1 2011-09-30 11:36:00
1 1970-10-22 18:00:00 Ts debe ser mayor o igual a Td Ts=1.0 - Td=12.3 2011-09-30 11:36:00
1 1970-10-26 06:00:00 Ts debe ser mayor o igual a Td Ts=0.6 - Td=7.6 2011-09-30 11:37:00
1 1970-10-27 21:00:00 Ts debe ser mayor o igual a Td Ts=1.8 - Td=23.7 2011-09-30 11:37:00
1 1970-10-28 06:00:00 Ts debe ser mayor o igual a Td Ts=0.7 - Td=10.1 2011-09-30 11:37:00
1 1970-10-28 09:00:00 Ts debe ser mayor o igual a Td Ts=5.2 - Td=5.6 2011-09-30 11:37:00
1 1970-10-28 18:00:00 Ts debe ser mayor o igual a Td Ts=1.1 - Td=14.2 2011-09-30 11:37:00
1 1970-11-05 15:00:00 Ts debe ser mayor o igual a Td Ts=10.2 - Td=19.6 2011-09-30 11:37:00
1 1970-11-08 09:00:00 Ts debe ser mayor o igual a Td Ts=5.0 - Td=8.5 2011-09-30 11:37:00
1 1970-11-10 03:00:00 Ts debe ser mayor o igual a Td Ts=1.0 - Td=12.7 2011-09-30 11:37:00
1 1970-12-03 09:00:00 Ts debe ser mayor o igual a Td Ts=1.0 - Td=14.5 2011-09-30 11:37:00
1 1970-12-04 18:00:00 Ts debe ser mayor o igual a Td Ts=0.9 - Td=13.2 2011-09-30 11:37:00
1 1970-12-04 21:00:00 Ts debe ser mayor o igual a Td Ts=0.9 - Td=13.8 2011-09-30 11:37:00
1 1970-12-26 03:00:00 Ts debe ser mayor o igual a Td Ts=2.4 - Td=4.1 2011-09-30 11:37:00
1 1971-01-16 18:00:00 Ts debe ser mayor o igual a Td Ts=1.0 - Td=11.9 2011-09-30 11:37:00
1 1971-01-16 21:00:00 Ts debe ser mayor o igual a Td Ts=1.0 - Td=12.2 2011-09-30 11:37:00
1 1971-01-27 12:00:00 Ts debe ser mayor o igual a Td Ts=6.4 - Td=7.6 2011-09-30 11:37:00
1 1971-02-01 00:00:00 Ts debe ser mayor o igual a Td Ts=1.0 - Td=11.8 2011-09-30 11:37:00
1 1971-02-13 15:00:00 Ts debe ser mayor o igual a Td Ts=1.1 - Td=14.1 2011-09-30 11:37:00
1 1971-02-13 21:00:00 Ts debe ser mayor o igual a Td Ts=1.0 - Td=14.7 2011-09-30 11:37:00
1 1971-02-15 00:00:00 Ts debe ser mayor o igual a Td Ts=1.0 - Td=12.5 2011-09-30 11:37:00
1 1971-04-03 06:00:00 Ts debe ser mayor o igual a Td Ts=4.2 - Td=5.0 2011-09-30 11:38:00
1 1971-04-05 12:00:00 Ts debe ser mayor o igual a Td Ts=-0.4 - Td=0.1 2011-09-30 11:38:00
1 1971-04-08 15:00:00 Ts debe ser mayor o igual a Td Ts=4.0 - Td=15.0 2011-09-30 11:38:00
1 1971-05-02 03:00:00 Ts debe ser mayor o igual a Td Ts=-1.2 - Td=0.8 2011-09-30 11:38:00
1 1971-05-02 06:00:00 Ts debe ser mayor o igual a Td Ts=-1.4 - Td=1.3 2011-09-30 11:38:00
1 1971-05-04 06:00:00 Ts debe ser mayor o igual a Td Ts=0.2 - Td=1.2 2011-09-30 11:38:00
1 1971-05-04 09:00:00 Ts debe ser mayor o igual a Td Ts=-0.4 - Td=0.6 2011-09-30 11:38:00
1 1971-05-05 03:00:00 Ts debe ser mayor o igual a Td Ts=-2.0 - Td=2.3 2011-09-30 11:38:00
1 1971-05-05 06:00:00 Ts debe ser mayor o igual a Td Ts=-2.6 - Td=0.0 2011-09-30 11:38:00
1 1971-05-05 09:00:00 Ts debe ser mayor o igual a Td Ts=-3.6 - Td=-0.9 2011-09-30 11:38:00
1 1971-05-05 12:00:00 Ts debe ser mayor o igual a Td Ts=-2.0 - Td=-0.4 2011-09-30 11:38:00
1 1971-05-06 06:00:00 Ts debe ser mayor o igual a Td Ts=-2.3 - Td=-0.5 2011-09-30 11:38:00
1 1971-05-06 09:00:00 Ts debe ser mayor o igual a Td Ts=-1.6 - Td=2.0 2011-09-30 11:38:00
1 1971-05-06 12:00:00 Ts debe ser mayor o igual a Td Ts=-1.0 - Td=1.4 2011-09-30 11:38:00
1 1971-05-07 09:00:00 Ts debe ser mayor o igual a Td Ts=-1.6 - Td=1.8 2011-09-30 11:38:00
1 1971-05-07 12:00:00 Ts debe ser mayor o igual a Td Ts=-1.4 - Td=1.5 2011-09-30 11:38:00
1 1971-05-08 03:00:00 Ts debe ser mayor o igual a Td Ts=-0.4 - Td=0.1 2011-09-30 11:38:00
1 1971-05-30 12:00:00 Ts debe ser mayor o igual a Td Ts=-2.5 - Td=0.3 2011-09-30 11:38:00
1 1971-06-02 06:00:00 Ts debe ser mayor o igual a Td Ts=3.3 - Td=12.3 2011-09-30 11:38:00
1 1971-06-06 15:00:00 Ts debe ser mayor o igual a Td Ts=-2.8 - Td=5.3 2011-09-30 11:38:00
1 1971-06-08 00:00:00 Ts debe ser mayor o igual a Td Ts=-0.6 - Td=0.4 2011-09-30 11:38:00
1 1971-06-08 09:00:00 Ts debe ser mayor o igual a Td Ts=0.3 - Td=2.2 2011-09-30 11:38:00
1 1971-06-14 21:00:00 Ts debe ser mayor o igual a Td Ts=-2.0 - Td=5.1 2011-09-30 11:38:00
1 1971-06-15 00:00:00 Ts debe ser mayor o igual a Td Ts=-1.0 - Td=3.2 2011-09-30 11:38:00
1 1971-06-15 09:00:00 Ts debe ser mayor o igual a Td Ts=-1.0 - Td=2.3 2011-09-30 11:38:00
1 1971-06-15 12:00:00 Ts debe ser mayor o igual a Td Ts=-0.2 - Td=0.1 2011-09-30 11:38:00
1 1971-06-18 12:00:00 Ts debe ser mayor o igual a Td Ts=-2.2 - Td=2.5 2011-09-30 11:38:00
1 1971-06-19 06:00:00 Ts debe ser mayor o igual a Td Ts=-1.0 - Td=3.9 2011-09-30 11:38:00
1 1971-06-28 12:00:00 Ts debe ser mayor o igual a Td Ts=1.5 - Td=2.6 2011-09-30 11:39:00
1 1971-06-29 12:00:00 Ts debe ser mayor o igual a Td Ts=0.0 - Td=1.9 2011-09-30 11:39:00
1 1971-07-02 00:00:00 Ts debe ser mayor o igual a Td Ts=-3.2 - Td=-2.6 2011-09-30 11:39:00
1 1971-07-03 09:00:00 Ts debe ser mayor o igual a Td Ts=-0.8 - Td=-0.3 2011-09-30 11:39:00
1 1971-07-06 15:00:00 Ts debe ser mayor o igual a Td Ts=-0.2 - Td=1.9 2011-09-30 11:39:00
1 1971-07-07 00:00:00 Ts debe ser mayor o igual a Td Ts=-0.8 - Td=2.5 2011-09-30 11:39:00
1 1971-07-08 03:00:00 Ts debe ser mayor o igual a Td Ts=-3.2 - Td=-1.1 2011-09-30 11:39:00
1 1971-07-08 06:00:00 Ts debe ser mayor o igual a Td Ts=-3.2 - Td=-1.6 2011-09-30 11:39:00
1 1971-07-08 09:00:00 Ts debe ser mayor o igual a Td Ts=-3.0 - Td=-0.9 2011-09-30 11:39:00
1 1971-07-09 03:00:00 Ts debe ser mayor o igual a Td Ts=3.4 - Td=4.7 2011-09-30 11:39:00
1 1971-07-09 09:00:00 Ts debe ser mayor o igual a Td Ts=-3.4 - Td=10.9 2011-09-30 11:39:00
1 1971-07-13 06:00:00 Ts debe ser mayor o igual a Td Ts=-0.4 - Td=2.0 2011-09-30 11:39:00
1 1971-07-13 09:00:00 Ts debe ser mayor o igual a Td Ts=-1.2 - Td=0.8 2011-09-30 11:39:00
1 1971-07-14 00:00:00 Ts debe ser mayor o igual a Td Ts=-1.0 - Td=4.4 2011-09-30 11:39:00
1 1971-07-14 03:00:00 Ts debe ser mayor o igual a Td Ts=-1.0 - Td=4.4 2011-09-30 11:39:00
1 1971-07-14 09:00:00 Ts debe ser mayor o igual a Td Ts=-1.2 - Td=5.0 2011-09-30 11:39:00
1 1971-07-14 18:00:00 Ts debe ser mayor o igual a Td Ts=0.0 - Td=4.0 2011-09-30 11:39:00
1 1971-07-24 06:00:00 Ts debe ser mayor o igual a Td Ts=2.0 - Td=19.3 2011-09-30 11:39:00
1 1971-08-30 12:00:00 Ts debe ser mayor o igual a Td Ts=-0.8 - Td=1.6 2011-09-30 11:39:00
1 1971-09-02 00:00:00 Ts debe ser mayor o igual a Td Ts=-0.4 - Td=0.1 2011-09-30 11:39:00
1 1971-09-02 03:00:00 Ts debe ser mayor o igual a Td Ts=-1.4 - Td=-0.4 2011-09-30 11:39:00
1 1971-09-10 09:00:00 Ts debe ser mayor o igual a Td Ts=0.5 - Td=8.0 2011-09-30 11:39:00
1 1971-09-20 09:00:00 Ts debe ser mayor o igual a Td Ts=-1.0 - Td=1.4 2011-09-30 11:39:00
1 1971-09-20 12:00:00 Ts debe ser mayor o igual a Td Ts=-0.6 - Td=0.4 2011-09-30 11:39:00
1 1971-09-27 15:00:00 Ts debe ser mayor o igual a Td Ts=0.2 - Td=7.2 2011-09-30 11:39:00
1 1971-09-29 06:00:00 Ts debe ser mayor o igual a Td Ts=1.0 - Td=13.9 2011-09-30 11:39:00
1 1971-09-30 21:00:00 Ts debe ser mayor o igual a Td Ts=2.3 - Td=5.3 2011-09-30 11:39:00
1 1971-10-11 06:00:00 Ts debe ser mayor o igual a Td Ts=2.4 - Td=3.3 2011-09-30 11:39:00
1 1972-01-06 00:00:00 Ts debe ser mayor o igual a Td Ts=7.6 - Td=11.2 2011-09-30 11:40:00
1 1972-01-24 06:00:00 Ts debe ser mayor o igual a Td Ts=1.4 - Td=2.8 2011-09-30 11:40:00
1 1972-01-24 18:00:00 Ts debe ser mayor o igual a Td Ts=2.8 - Td=16.1 2011-09-30 11:40:00
1 1972-02-16 03:00:00 Ts debe ser mayor o igual a Td Ts=3.9 - Td=18.0 2011-09-30 11:40:00
1 1972-04-07 12:00:00 Ts debe ser mayor o igual a Td Ts=3.0 - Td=5.1 2011-09-30 11:41:00
1 1972-04-12 15:00:00 Ts debe ser mayor o igual a Td Ts=0.5 - Td=3.8 2011-09-30 11:41:00
1 1972-04-14 09:00:00 Ts debe ser mayor o igual a Td Ts=-1.6 - Td=1.8 2011-09-30 11:41:00
1 1972-04-18 00:00:00 Ts debe ser mayor o igual a Td Ts=1.9 - Td=7.9 2011-09-30 11:41:00
1 1972-05-23 15:00:00 Ts debe ser mayor o igual a Td Ts=2.6 - Td=17.7 2011-09-30 11:41:00
1 1972-06-01 00:00:00 Ts debe ser mayor o igual a Td Ts=-5.4 - Td=-2.0 2011-09-30 11:41:00
1 1972-06-01 09:00:00 Ts debe ser mayor o igual a Td Ts=-5.1 - Td=5.3 2011-09-30 11:41:00
1 1972-06-01 15:00:00 Ts debe ser mayor o igual a Td Ts=-0.8 - Td=2.7 2011-09-30 11:41:00
1 1972-06-03 06:00:00 Ts debe ser mayor o igual a Td Ts=-5.1 - Td=3.8 2011-09-30 11:41:00
1 1972-06-05 09:00:00 Ts debe ser mayor o igual a Td Ts=-0.2 - Td=0.5 2011-09-30 11:41:00
1 1972-06-06 18:00:00 Ts debe ser mayor o igual a Td Ts=1.0 - Td=3.2 2011-09-30 11:41:00
1 1972-06-07 03:00:00 Ts debe ser mayor o igual a Td Ts=0.0 - Td=0.5 2011-09-30 11:41:00
1 1972-06-09 00:00:00 Ts debe ser mayor o igual a Td Ts=-1.0 - Td=5.1 2011-09-30 11:41:00
1 1972-06-12 03:00:00 Ts debe ser mayor o igual a Td Ts=-1.4 - Td=6.0 2011-09-30 11:41:00
1 1972-06-12 21:00:00 Ts debe ser mayor o igual a Td Ts=0.6 - Td=5.4 2011-09-30 11:41:00
1 1972-06-24 00:00:00 Ts debe ser mayor o igual a Td Ts=-1.0 - Td=3.1 2011-09-30 11:41:00
1 1972-06-28 15:00:00 Ts debe ser mayor o igual a Td Ts=-1.6 - Td=-1.1 2011-09-30 11:41:00
1 1972-07-01 00:00:00 Ts debe ser mayor o igual a Td Ts=-1.2 - Td=4.6 2011-09-30 11:41:00
1 1972-07-02 00:00:00 Ts debe ser mayor o igual a Td Ts=0.1 - Td=0.8 2011-09-30 11:41:00
1 1972-07-15 15:00:00 Ts debe ser mayor o igual a Td Ts=-3.1 - Td=-2.3 2011-09-30 11:42:00
1 1972-07-16 09:00:00 Ts debe ser mayor o igual a Td Ts=-1.6 - Td=6.1 2011-09-30 11:42:00
1 1972-07-19 00:00:00 Ts debe ser mayor o igual a Td Ts=0.0 - Td=3.2 2011-09-30 11:42:00
1 1972-07-20 12:00:00 Ts debe ser mayor o igual a Td Ts=0.0 - Td=2.8 2011-09-30 11:42:00
1 1972-07-20 15:00:00 Ts debe ser mayor o igual a Td Ts=-0.2 - Td=1.7 2011-09-30 11:42:00
1 1972-07-24 18:00:00 Ts debe ser mayor o igual a Td Ts=0.3 - Td=0.5 2011-09-30 11:42:00
1 1972-07-25 09:00:00 Ts debe ser mayor o igual a Td Ts=-1.8 - Td=-1.5 2011-09-30 11:42:00
1 1972-07-25 12:00:00 Ts debe ser mayor o igual a Td Ts=-3.0 - Td=-0.4 2011-09-30 11:42:00
1 1972-08-01 06:00:00 Ts debe ser mayor o igual a Td Ts=-0.6 - Td=0.4 2011-09-30 11:42:00
1 1972-08-01 15:00:00 Ts debe ser mayor o igual a Td Ts=-2.0 - Td=-1.5 2011-09-30 11:42:00
1 1972-08-02 00:00:00 Ts debe ser mayor o igual a Td Ts=-0.4 - Td=0.1 2011-09-30 11:42:00
1 1972-08-05 00:00:00 Ts debe ser mayor o igual a Td Ts=-3.0 - Td=-0.9 2011-09-30 11:42:00
1 1972-08-05 09:00:00 Ts debe ser mayor o igual a Td Ts=-5.0 - Td=5.4 2011-09-30 11:42:00
1 1972-08-12 00:00:00 Ts debe ser mayor o igual a Td Ts=-1.0 - Td=4.0 2011-09-30 11:42:00
1 1972-08-22 09:00:00 Ts debe ser mayor o igual a Td Ts=-1.6 - Td=-0.6 2011-09-30 11:42:00
1 1972-09-02 03:00:00 Ts debe ser mayor o igual a Td Ts=-1.0 - Td=5.5 2011-09-30 11:42:00
1 1972-09-03 06:00:00 Ts debe ser mayor o igual a Td Ts=-0.7 - Td=1.0 2011-09-30 11:42:00
1 1972-09-03 09:00:00 Ts debe ser mayor o igual a Td Ts=-1.1 - Td=-0.8 2011-09-30 11:42:00
1 1972-09-05 06:00:00 Ts debe ser mayor o igual a Td Ts=-2.0 - Td=1.4 2011-09-30 11:42:00
1 1972-09-05 15:00:00 Ts debe ser mayor o igual a Td Ts=-2.6 - Td=5.3 2011-09-30 11:42:00
1 1972-09-18 06:00:00 Ts debe ser mayor o igual a Td Ts=-1.0 - Td=1.4 2011-09-30 11:42:00
1 1972-09-18 12:00:00 Ts debe ser mayor o igual a Td Ts=-1.2 - Td=5.3 2011-09-30 11:42:00
1 1972-09-27 06:00:00 Ts debe ser mayor o igual a Td Ts=-1.6 - Td=6.1 2011-09-30 11:42:00
1 1972-09-28 03:00:00 Ts debe ser mayor o igual a Td Ts=2.4 - Td=12.7 2011-09-30 11:42:00
1 1972-09-30 06:00:00 Ts debe ser mayor o igual a Td Ts=0.0 - Td=1.9 2011-09-30 11:42:00
1 1972-10-02 09:00:00 Ts debe ser mayor o igual a Td Ts=-2.3 - Td=-1.0 2011-09-30 11:42:00
1 1972-10-02 18:00:00 Ts debe ser mayor o igual a Td Ts=0.1 - Td=0.3 2011-09-30 11:42:00
1 1972-10-03 06:00:00 Ts debe ser mayor o igual a Td Ts=-1.4 - Td=5.9 2011-09-30 11:42:00
1 1972-10-06 09:00:00 Ts debe ser mayor o igual a Td Ts=-0.9 - Td=-0.6 2011-09-30 11:42:00
1 1972-11-06 15:00:00 Ts debe ser mayor o igual a Td Ts=3.2 - Td=9.7 2011-09-30 11:42:00
1 1973-01-11 12:00:00 Ts debe ser mayor o igual a Td Ts=0.6 - Td=7.8 2011-09-30 11:43:00
1 1973-02-05 15:00:00 Ts debe ser mayor o igual a Td Ts=2.2 - Td=14.8 2011-09-30 11:43:00
1 1973-02-21 06:00:00 Ts debe ser mayor o igual a Td Ts=9.6 - Td=9.8 2011-09-30 11:43:00
1 1973-03-01 18:00:00 Ts debe ser mayor o igual a Td Ts=1.2 - Td=12.8 2011-09-30 11:43:00
1 1973-03-03 18:00:00 Ts debe ser mayor o igual a Td Ts=1.0 - Td=13.7 2011-09-30 11:44:00
1 1973-03-07 12:00:00 Ts debe ser mayor o igual a Td Ts=0.5 - Td=8.7 2011-09-30 11:44:00
1 1973-03-14 09:00:00 Ts debe ser mayor o igual a Td Ts=1.4 - Td=10.5 2011-09-30 11:44:00
1 1973-03-15 09:00:00 Ts debe ser mayor o igual a Td Ts=0.2 - Td=3.0 2011-09-30 11:44:00
1 1973-03-21 15:00:00 Ts debe ser mayor o igual a Td Ts=15.0 - Td=18.6 2011-09-30 11:44:00
1 1973-03-30 09:00:00 Ts debe ser mayor o igual a Td Ts=-0.6 - Td=10.8 2011-09-30 11:44:00
1 1973-04-02 15:00:00 Ts debe ser mayor o igual a Td Ts=0.2 - Td=4.6 2011-09-30 11:44:00
1 1973-04-04 09:00:00 Ts debe ser mayor o igual a Td Ts=4.2 - Td=5.8 2011-09-30 11:44:00
1 1973-04-05 15:00:00 Ts debe ser mayor o igual a Td Ts=-10.0 - Td=19.8 2011-09-30 11:44:00
1 1973-04-17 03:00:00 Ts debe ser mayor o igual a Td Ts=1.7 - Td=15.4 2011-09-30 11:44:00
1 1973-04-20 06:00:00 Ts debe ser mayor o igual a Td Ts=-1.0 - Td=1.7 2011-09-30 11:44:00
1 1973-04-20 12:00:00 Ts debe ser mayor o igual a Td Ts=-1.6 - Td=0.4 2011-09-30 11:44:00
1 1973-04-21 00:00:00 Ts debe ser mayor o igual a Td Ts=2.0 - Td=7.1 2011-09-30 11:44:00
1 1973-04-21 06:00:00 Ts debe ser mayor o igual a Td Ts=-1.2 - Td=0.3 2011-09-30 11:44:00
1 1973-04-21 09:00:00 Ts debe ser mayor o igual a Td Ts=-1.6 - Td=3.9 2011-09-30 11:44:00
1 1973-04-27 00:00:00 Ts debe ser mayor o igual a Td Ts=-0.2 - Td=2.2 2011-09-30 11:44:00
1 1973-04-27 09:00:00 Ts debe ser mayor o igual a Td Ts=-2.0 - Td=1.4 2011-09-30 11:44:00
1 1973-04-30 00:00:00 Ts debe ser mayor o igual a Td Ts=-0.6 - Td=2.2 2011-09-30 11:44:00
1 1973-04-30 06:00:00 Ts debe ser mayor o igual a Td Ts=-1.0 - Td=0.9 2011-09-30 11:44:00
1 1973-04-30 15:00:00 Ts debe ser mayor o igual a Td Ts=-0.4 - Td=0.1 2011-09-30 11:44:00
1 1973-04-30 21:00:00 Ts debe ser mayor o igual a Td Ts=-0.2 - Td=0.5 2011-09-30 11:44:00
1 1973-05-01 00:00:00 Ts debe ser mayor o igual a Td Ts=-0.4 - Td=1.3 2011-09-30 11:44:00
1 1973-05-01 06:00:00 Ts debe ser mayor o igual a Td Ts=-2.9 - Td=-1.6 2011-09-30 11:44:00
1 1973-05-01 09:00:00 Ts debe ser mayor o igual a Td Ts=-2.4 - Td=-1.3 2011-09-30 11:44:00
1 1973-05-04 00:00:00 Ts debe ser mayor o igual a Td Ts=0.8 - Td=8.7 2011-09-30 11:44:00
1 1973-05-20 15:00:00 Ts debe ser mayor o igual a Td Ts=-0.8 - Td=2.9 2011-09-30 11:44:00
1 1973-05-27 09:00:00 Ts debe ser mayor o igual a Td Ts=0.8 - Td=1.3 2011-09-30 11:44:00
1 1973-05-28 00:00:00 Ts debe ser mayor o igual a Td Ts=-1.8 - Td=-1.3 2011-09-30 11:44:00
1 1973-05-30 21:00:00 Ts debe ser mayor o igual a Td Ts=0.5 - Td=5.4 2011-09-30 11:44:00
1 1973-06-01 00:00:00 Ts debe ser mayor o igual a Td Ts=-0.4 - Td=0.1 2011-09-30 11:44:00
1 1973-06-01 18:00:00 Ts debe ser mayor o igual a Td Ts=2.6 - Td=3.0 2011-09-30 11:44:00
1 1973-06-02 18:00:00 Ts debe ser mayor o igual a Td Ts=-0.6 - Td=2.4 2011-09-30 11:44:00
1 1973-06-03 09:00:00 Ts debe ser mayor o igual a Td Ts=0.6 - Td=1.1 2011-09-30 11:44:00
1 1973-06-06 09:00:00 Ts debe ser mayor o igual a Td Ts=-1.8 - Td=-0.3 2011-09-30 11:44:00
1 1973-06-06 12:00:00 Ts debe ser mayor o igual a Td Ts=-1.8 - Td=-1.3 2011-09-30 11:44:00
1 1973-06-07 00:00:00 Ts debe ser mayor o igual a Td Ts=-2.0 - Td=2.3 2011-09-30 11:44:00
1 1973-06-07 03:00:00 Ts debe ser mayor o igual a Td Ts=-2.8 - Td=-2.3 2011-09-30 11:44:00
1 1973-06-10 09:00:00 Ts debe ser mayor o igual a Td Ts=-2.4 - Td=0.1 2011-09-30 11:44:00
1 1973-06-13 15:00:00 Ts debe ser mayor o igual a Td Ts=-0.2 - Td=0.8 2011-09-30 11:44:00
1 1973-06-14 00:00:00 Ts debe ser mayor o igual a Td Ts=0.4 - Td=0.9 2011-09-30 11:44:00
1 1973-06-15 21:00:00 Ts debe ser mayor o igual a Td Ts=-0.6 - Td=-0.3 2011-09-30 11:44:00
1 1973-06-18 00:00:00 Ts debe ser mayor o igual a Td Ts=-0.6 - Td=0.4 2011-09-30 11:44:00
1 1973-06-18 06:00:00 Ts debe ser mayor o igual a Td Ts=-4.6 - Td=-4.0 2011-09-30 11:44:00
1 1973-06-19 09:00:00 Ts debe ser mayor o igual a Td Ts=-1.4 - Td=-0.9 2011-09-30 11:44:00
1 1973-06-20 12:00:00 Ts debe ser mayor o igual a Td Ts=-2.2 - Td=-0.4 2011-09-30 11:44:00
1 1973-06-20 15:00:00 Ts debe ser mayor o igual a Td Ts=-1.4 - Td=-1.1 2011-09-30 11:44:00
1 1973-06-21 18:00:00 Ts debe ser mayor o igual a Td Ts=-0.4 - Td=0.1 2011-09-30 11:44:00
1 1973-06-21 21:00:00 Ts debe ser mayor o igual a Td Ts=-1.4 - Td=-0.9 2011-09-30 11:44:00
1 1973-06-25 00:00:00 Ts debe ser mayor o igual a Td Ts=-1.4 - Td=-0.9 2011-09-30 11:44:00
1 1973-06-26 15:00:00 Ts debe ser mayor o igual a Td Ts=-4.2 - Td=11.8 2011-09-30 11:44:00
1 1973-07-03 06:00:00 Ts debe ser mayor o igual a Td Ts=-1.8 - Td=-1.3 2011-09-30 11:45:00
1 1973-07-03 21:00:00 Ts debe ser mayor o igual a Td Ts=-2.8 - Td=-2.3 2011-09-30 11:45:00
1 1973-07-04 09:00:00 Ts debe ser mayor o igual a Td Ts=-3.6 - Td=-3.0 2011-09-30 11:45:00
1 1973-07-04 12:00:00 Ts debe ser mayor o igual a Td Ts=-2.6 - Td=-2.1 2011-09-30 11:45:00
1 1973-07-05 12:00:00 Ts debe ser mayor o igual a Td Ts=-5.2 - Td=-4.0 2011-09-30 11:45:00
1 1973-07-06 06:00:00 Ts debe ser mayor o igual a Td Ts=-7.4 - Td=-6.7 2011-09-30 11:45:00
1 1973-07-07 00:00:00 Ts debe ser mayor o igual a Td Ts=-5.0 - Td=-4.7 2011-09-30 11:45:00
1 1973-07-07 09:00:00 Ts debe ser mayor o igual a Td Ts=-1.8 - Td=-0.8 2011-09-30 11:45:00
1 1973-07-07 12:00:00 Ts debe ser mayor o igual a Td Ts=-1.2 - Td=-0.7 2011-09-30 11:45:00
1 1973-07-11 15:00:00 Ts debe ser mayor o igual a Td Ts=-2.6 - Td=-1.0 2011-09-30 11:45:00
1 1973-07-13 03:00:00 Ts debe ser mayor o igual a Td Ts=-5.2 - Td=-4.6 2011-09-30 11:45:00
1 1973-07-13 06:00:00 Ts debe ser mayor o igual a Td Ts=-4.6 - Td=-4.0 2011-09-30 11:45:00
1 1973-07-17 21:00:00 Ts debe ser mayor o igual a Td Ts=-2.2 - Td=-1.1 2011-09-30 11:45:00
1 1973-07-19 06:00:00 Ts debe ser mayor o igual a Td Ts=-3.8 - Td=-3.2 2011-09-30 11:45:00
1 1973-07-20 03:00:00 Ts debe ser mayor o igual a Td Ts=-5.0 - Td=13.8 2011-09-30 11:45:00
1 1973-07-22 12:00:00 Ts debe ser mayor o igual a Td Ts=-2.6 - Td=-2.1 2011-09-30 11:45:00
1 1973-08-01 09:00:00 Ts debe ser mayor o igual a Td Ts=0.6 - Td=5.7 2011-09-30 11:45:00
1 1973-08-01 15:00:00 Ts debe ser mayor o igual a Td Ts=0.4 - Td=4.3 2011-09-30 11:45:00
1 1973-08-03 03:00:00 Ts debe ser mayor o igual a Td Ts=0.3 - Td=0.5 2011-09-30 11:45:00
1 1973-08-03 09:00:00 Ts debe ser mayor o igual a Td Ts=-1.5 - Td=-1.2 2011-09-30 11:45:00
1 1973-08-06 12:00:00 Ts debe ser mayor o igual a Td Ts=-2.6 - Td=2.6 2011-09-30 11:45:00
1 1973-08-08 09:00:00 Ts debe ser mayor o igual a Td Ts=-0.2 - Td=0.3 2011-09-30 11:45:00
1 1973-08-31 15:00:00 Ts debe ser mayor o igual a Td Ts=1.0 - Td=9.2 2011-09-30 11:45:00
1 1973-09-13 21:00:00 Ts debe ser mayor o igual a Td Ts=-0.6 - Td=-0.1 2011-09-30 11:45:00
1 1973-09-14 12:00:00 Ts debe ser mayor o igual a Td Ts=-2.6 - Td=8.4 2011-09-30 11:45:00
1 1973-09-17 09:00:00 Ts debe ser mayor o igual a Td Ts=0.4 - Td=1.8 2011-09-30 11:45:00
1 1973-09-19 06:00:00 Ts debe ser mayor o igual a Td Ts=1.4 - Td=7.1 2011-09-30 11:45:00
1 1973-09-24 21:00:00 Ts debe ser mayor o igual a Td Ts=-0.2 - Td=2.1 2011-09-30 11:45:00
1 1973-10-11 18:00:00 Ts debe ser mayor o igual a Td Ts=2.0 - Td=10.0 2011-09-30 11:45:00
1 1973-10-17 15:00:00 Ts debe ser mayor o igual a Td Ts=5.2 - Td=5.6 2011-09-30 11:45:00
1 1973-11-01 21:00:00 Ts debe ser mayor o igual a Td Ts=0.4 - Td=10.0 2011-09-30 11:45:00
1 1973-11-10 03:00:00 Ts debe ser mayor o igual a Td Ts=6.0 - Td=6.8 2011-09-30 11:46:00
1 1973-11-29 06:00:00 Ts debe ser mayor o igual a Td Ts=4.0 - Td=7.7 2011-09-30 11:46:00
1 1973-12-12 09:00:00 Ts debe ser mayor o igual a Td Ts=2.6 - Td=3.5 2011-09-30 11:46:00
1 1973-12-22 09:00:00 Ts debe ser mayor o igual a Td Ts=4.8 - Td=11.3 2011-09-30 11:46:00
1 1973-12-25 09:00:00 Ts debe ser mayor o igual a Td Ts=2.0 - Td=12.4 2011-09-30 11:46:00
1 1974-01-02 09:00:00 Ts debe ser mayor o igual a Td Ts=6.9 - Td=7.5 2011-09-30 11:46:00
1 1974-01-02 18:00:00 Ts debe ser mayor o igual a Td Ts=13.6 - Td=14.3 2011-09-30 11:46:00
1 1974-01-04 00:00:00 Ts debe ser mayor o igual a Td Ts=7.2 - Td=7.6 2011-09-30 11:46:00
1 1974-01-06 09:00:00 Ts debe ser mayor o igual a Td Ts=-0.2 - Td=0.3 2011-09-30 11:46:00
1 1974-01-11 03:00:00 Ts debe ser mayor o igual a Td Ts=4.8 - Td=5.0 2011-09-30 11:46:00
1 1974-02-08 03:00:00 Ts debe ser mayor o igual a Td Ts=0.5 - Td=7.7 2011-09-30 11:46:00
1 1974-02-08 09:00:00 Ts debe ser mayor o igual a Td Ts=0.7 - Td=7.8 2011-09-30 11:46:00
1 1974-02-08 12:00:00 Ts debe ser mayor o igual a Td Ts=0.6 - Td=9.3 2011-09-30 11:46:00
1 1974-02-08 15:00:00 Ts debe ser mayor o igual a Td Ts=0.8 - Td=11.2 2011-09-30 11:46:00
1 1974-02-08 18:00:00 Ts debe ser mayor o igual a Td Ts=1.0 - Td=12.4 2011-09-30 11:46:00
1 1974-02-08 21:00:00 Ts debe ser mayor o igual a Td Ts=0.9 - Td=11.8 2011-09-30 11:46:00
1 1974-02-09 06:00:00 Ts debe ser mayor o igual a Td Ts=0.4 - Td=6.4 2011-09-30 11:46:00
1 1974-02-09 09:00:00 Ts debe ser mayor o igual a Td Ts=0.1 - Td=1.5 2011-09-30 11:46:00
1 1974-02-10 03:00:00 Ts debe ser mayor o igual a Td Ts=0.9 - Td=11.5 2011-09-30 11:46:00
1 1974-02-10 18:00:00 Ts debe ser mayor o igual a Td Ts=1.6 - Td=15.8 2011-09-30 11:46:00
1 1974-02-11 00:00:00 Ts debe ser mayor o igual a Td Ts=1.2 - Td=13.1 2011-09-30 11:46:00
1 1974-02-11 03:00:00 Ts debe ser mayor o igual a Td Ts=0.9 - Td=13.3 2011-09-30 11:46:00
1 1974-02-11 12:00:00 Ts debe ser mayor o igual a Td Ts=7.0 - Td=7.4 2011-09-30 11:46:00
1 1974-02-12 03:00:00 Ts debe ser mayor o igual a Td Ts=0.5 - Td=8.4 2011-09-30 11:46:00
1 1974-02-12 06:00:00 Ts debe ser mayor o igual a Td Ts=0.6 - Td=9.8 2011-09-30 11:46:00
1 1974-02-13 21:00:00 Ts debe ser mayor o igual a Td Ts=1.2 - Td=11.9 2011-09-30 11:46:00
1 1974-02-14 15:00:00 Ts debe ser mayor o igual a Td Ts=1.2 - Td=13.4 2011-09-30 11:46:00
1 1974-02-14 21:00:00 Ts debe ser mayor o igual a Td Ts=1.5 - Td=15.9 2011-09-30 11:46:00
1 1974-02-18 03:00:00 Ts debe ser mayor o igual a Td Ts=7.6 - Td=9.1 2011-09-30 11:46:00
1 1974-03-10 06:00:00 Ts debe ser mayor o igual a Td Ts=2.4 - Td=2.8 2011-09-30 11:47:00
1 1974-04-07 09:00:00 Ts debe ser mayor o igual a Td Ts=2.0 - Td=3.8 2011-09-30 11:47:00
1 1974-04-11 06:00:00 Ts debe ser mayor o igual a Td Ts=4.5 - Td=5.5 2011-09-30 11:47:00
1 1974-04-21 06:00:00 Ts debe ser mayor o igual a Td Ts=6.5 - Td=7.1 2011-09-30 11:47:00
1 1974-05-01 03:00:00 Ts debe ser mayor o igual a Td Ts=1.8 - Td=15.2 2011-09-30 11:47:00
1 1974-05-01 06:00:00 Ts debe ser mayor o igual a Td Ts=3.8 - Td=13.8 2011-09-30 11:47:00
1 1974-05-01 09:00:00 Ts debe ser mayor o igual a Td Ts=3.6 - Td=10.2 2011-09-30 11:47:00
1 1974-05-03 18:00:00 Ts debe ser mayor o igual a Td Ts=5.6 - Td=8.3 2011-09-30 11:47:00
1 1974-05-03 21:00:00 Ts debe ser mayor o igual a Td Ts=3.8 - Td=10.1 2011-09-30 11:47:00
1 1974-05-06 06:00:00 Ts debe ser mayor o igual a Td Ts=1.0 - Td=14.0 2011-09-30 11:47:00
1 1974-05-06 18:00:00 Ts debe ser mayor o igual a Td Ts=1.0 - Td=14.3 2011-09-30 11:47:00
1 1974-05-15 09:00:00 Ts debe ser mayor o igual a Td Ts=1.2 - Td=1.4 2011-09-30 11:47:00
1 1974-05-16 00:00:00 Ts debe ser mayor o igual a Td Ts=-1.6 - Td=5.4 2011-09-30 11:47:00
1 1974-05-17 03:00:00 Ts debe ser mayor o igual a Td Ts=-0.4 - Td=5.1 2011-09-30 11:47:00
1 1974-05-17 09:00:00 Ts debe ser mayor o igual a Td Ts=-0.5 - Td=-0.2 2011-09-30 11:47:00
1 1974-05-17 12:00:00 Ts debe ser mayor o igual a Td Ts=-2.8 - Td=2.7 2011-09-30 11:47:00
1 1974-05-17 15:00:00 Ts debe ser mayor o igual a Td Ts=-2.2 - Td=1.7 2011-09-30 11:47:00
1 1974-05-17 21:00:00 Ts debe ser mayor o igual a Td Ts=0.1 - Td=1.5 2011-09-30 11:47:00
1 1974-05-22 00:00:00 Ts debe ser mayor o igual a Td Ts=-0.4 - Td=3.3 2011-09-30 11:47:00
1 1974-05-22 06:00:00 Ts debe ser mayor o igual a Td Ts=-1.0 - Td=4.4 2011-09-30 11:47:00
1 1974-06-04 00:00:00 Ts debe ser mayor o igual a Td Ts=-2.8 - Td=-1.2 2011-09-30 11:47:00
1 1974-06-04 06:00:00 Ts debe ser mayor o igual a Td Ts=-4.0 - Td=-1.3 2011-09-30 11:47:00
1 1974-06-04 09:00:00 Ts debe ser mayor o igual a Td Ts=-5.0 - Td=-1.7 2011-09-30 11:47:00
1 1974-06-05 09:00:00 Ts debe ser mayor o igual a Td Ts=-2.0 - Td=6.7 2011-09-30 11:47:00
1 1974-06-06 00:00:00 Ts debe ser mayor o igual a Td Ts=-1.0 - Td=1.0 2011-09-30 11:47:00
1 1974-06-06 03:00:00 Ts debe ser mayor o igual a Td Ts=-0.8 - Td=3.7 2011-09-30 11:47:00
1 1974-06-07 03:00:00 Ts debe ser mayor o igual a Td Ts=-0.4 - Td=0.6 2011-09-30 11:47:00
1 1974-06-07 06:00:00 Ts debe ser mayor o igual a Td Ts=-0.8 - Td=2.4 2011-09-30 11:47:00
1 1974-06-09 09:00:00 Ts debe ser mayor o igual a Td Ts=0.8 - Td=1.0 2011-09-30 11:47:00
1 1974-06-11 09:00:00 Ts debe ser mayor o igual a Td Ts=-0.2 - Td=0.8 2011-09-30 11:47:00
1 1974-06-12 03:00:00 Ts debe ser mayor o igual a Td Ts=-2.4 - Td=7.7 2011-09-30 11:47:00
1 1974-06-15 09:00:00 Ts debe ser mayor o igual a Td Ts=0.0 - Td=1.0 2011-09-30 11:47:00
1 1974-06-17 00:00:00 Ts debe ser mayor o igual a Td Ts=-0.4 - Td=4.1 2011-09-30 11:47:00
1 1974-06-17 12:00:00 Ts debe ser mayor o igual a Td Ts=0.4 - Td=1.4 2011-09-30 11:47:00
1 1974-06-19 03:00:00 Ts debe ser mayor o igual a Td Ts=-1.6 - Td=2.2 2011-09-30 11:47:00
1 1974-06-20 03:00:00 Ts debe ser mayor o igual a Td Ts=-0.6 - Td=0.1 2011-09-30 11:47:00
1 1974-06-21 03:00:00 Ts debe ser mayor o igual a Td Ts=-0.6 - Td=0.4 2011-09-30 11:47:00
1 1974-06-29 12:00:00 Ts debe ser mayor o igual a Td Ts=-1.4 - Td=-0.4 2011-09-30 11:47:00
1 1974-07-04 06:00:00 Ts debe ser mayor o igual a Td Ts=-0.8 - Td=-0.3 2011-09-30 11:48:00
1 1974-08-01 00:00:00 Ts debe ser mayor o igual a Td Ts=-2.4 - Td=0.1 2011-09-30 11:48:00
1 1974-08-01 09:00:00 Ts debe ser mayor o igual a Td Ts=-5.0 - Td=-4.4 2011-09-30 11:48:00
1 1974-08-07 15:00:00 Ts debe ser mayor o igual a Td Ts=0.2 - Td=2.5 2011-09-30 11:48:00
1 1974-08-16 15:00:00 Ts debe ser mayor o igual a Td Ts=0.0 - Td=2.3 2011-09-30 11:48:00
1 1974-08-16 18:00:00 Ts debe ser mayor o igual a Td Ts=-0.2 - Td=0.8 2011-09-30 11:48:00
1 1974-08-16 21:00:00 Ts debe ser mayor o igual a Td Ts=0.2 - Td=1.6 2011-09-30 11:48:00
1 1974-08-30 12:00:00 Ts debe ser mayor o igual a Td Ts=-3.8 - Td=-3.2 2011-09-30 11:48:00
1 1974-08-30 21:00:00 Ts debe ser mayor o igual a Td Ts=-0.4 - Td=1.1 2011-09-30 11:48:00
1 1974-08-31 00:00:00 Ts debe ser mayor o igual a Td Ts=-1.6 - Td=-1.1 2011-09-30 11:48:00
1 1974-09-02 12:00:00 Ts debe ser mayor o igual a Td Ts=1.5 - Td=2.6 2011-09-30 11:48:00
1 1974-09-06 12:00:00 Ts debe ser mayor o igual a Td Ts=2.0 - Td=6.2 2011-09-30 11:48:00
1 1974-09-09 15:00:00 Ts debe ser mayor o igual a Td Ts=3.0 - Td=5.1 2011-09-30 11:48:00
1 1974-09-16 03:00:00 Ts debe ser mayor o igual a Td Ts=-1.0 - Td=-0.5 2011-09-30 11:48:00
1 1974-09-26 09:00:00 Ts debe ser mayor o igual a Td Ts=-0.2 - Td=0.3 2011-09-30 11:48:00
1 1974-09-27 00:00:00 Ts debe ser mayor o igual a Td Ts=4.9 - Td=8.9 2011-09-30 11:48:00
1 1974-10-20 12:00:00 Ts debe ser mayor o igual a Td Ts=2.6 - Td=5.6 2011-09-30 11:48:00
1 1974-10-20 15:00:00 Ts debe ser mayor o igual a Td Ts=5.2 - Td=11.4 2011-09-30 11:48:00
1 1974-10-20 18:00:00 Ts debe ser mayor o igual a Td Ts=11.6 - Td=12.3 2011-09-30 11:48:00
1 1974-10-20 21:00:00 Ts debe ser mayor o igual a Td Ts=11.4 - Td=12.4 2011-09-30 11:48:00
1 1974-10-21 00:00:00 Ts debe ser mayor o igual a Td Ts=9.8 - Td=10.2 2011-09-30 11:48:00
1 1974-10-21 03:00:00 Ts debe ser mayor o igual a Td Ts=8.4 - Td=10.2 2011-09-30 11:48:00
1 1974-10-21 06:00:00 Ts debe ser mayor o igual a Td Ts=8.2 - Td=9.7 2011-09-30 11:48:00
1 1974-10-21 09:00:00 Ts debe ser mayor o igual a Td Ts=6.8 - Td=7.2 2011-09-30 11:48:00
1 1974-10-21 12:00:00 Ts debe ser mayor o igual a Td Ts=8.6 - Td=9.3 2011-09-30 11:48:00
1 1974-10-21 15:00:00 Ts debe ser mayor o igual a Td Ts=10.0 - Td=10.4 2011-09-30 11:48:00
1 1974-10-22 00:00:00 Ts debe ser mayor o igual a Td Ts=10.0 - Td=13.1 2011-09-30 11:48:00
1 1974-10-22 12:00:00 Ts debe ser mayor o igual a Td Ts=5.0 - Td=6.6 2011-09-30 11:48:00
1 1974-10-22 18:00:00 Ts debe ser mayor o igual a Td Ts=7.6 - Td=8.0 2011-09-30 11:48:00
1 1974-10-23 06:00:00 Ts debe ser mayor o igual a Td Ts=0.1 - Td=0.3 2011-09-30 11:48:00
1 1974-10-24 12:00:00 Ts debe ser mayor o igual a Td Ts=0.0 - Td=11.2 2011-09-30 11:48:00
1 1974-10-24 15:00:00 Ts debe ser mayor o igual a Td Ts=-0.8 - Td=0.9 2011-09-30 11:48:00
1 1974-10-24 18:00:00 Ts debe ser mayor o igual a Td Ts=0.1 - Td=7.9 2011-09-30 11:48:00
1 1974-10-25 00:00:00 Ts debe ser mayor o igual a Td Ts=-0.6 - Td=14.3 2011-09-30 11:48:00
1 1974-10-25 03:00:00 Ts debe ser mayor o igual a Td Ts=0.2 - Td=1.6 2011-09-30 11:48:00
1 1974-10-25 21:00:00 Ts debe ser mayor o igual a Td Ts=2.6 - Td=3.0 2011-09-30 11:48:00
1 1974-10-26 00:00:00 Ts debe ser mayor o igual a Td Ts=1.9 - Td=12.8 2011-09-30 11:48:00
1 1974-10-29 06:00:00 Ts debe ser mayor o igual a Td Ts=7.2 - Td=7.6 2011-09-30 11:48:00
1 1974-10-29 18:00:00 Ts debe ser mayor o igual a Td Ts=0.1 - Td=15.3 2011-09-30 11:48:00
1 1974-10-29 21:00:00 Ts debe ser mayor o igual a Td Ts=7.9 - Td=8.1 2011-09-30 11:48:00
1 1974-10-30 00:00:00 Ts debe ser mayor o igual a Td Ts=6.2 - Td=8.7 2011-09-30 11:48:00
1 1974-10-30 06:00:00 Ts debe ser mayor o igual a Td Ts=2.3 - Td=2.5 2011-09-30 11:48:00
1 1974-10-30 09:00:00 Ts debe ser mayor o igual a Td Ts=2.9 - Td=3.6 2011-09-30 11:48:00
1 1974-11-02 06:00:00 Ts debe ser mayor o igual a Td Ts=4.0 - Td=4.4 2011-09-30 11:48:00
1 1974-11-14 12:00:00 Ts debe ser mayor o igual a Td Ts=3.6 - Td=4.0 2011-09-30 11:49:00
1 1974-11-24 06:00:00 Ts debe ser mayor o igual a Td Ts=1.8 - Td=2.7 2011-09-30 11:49:00
1 1974-11-27 09:00:00 Ts debe ser mayor o igual a Td Ts=1.8 - Td=2.3 2011-09-30 11:49:00
1 1974-11-27 12:00:00 Ts debe ser mayor o igual a Td Ts=1.8 - Td=6.0 2011-09-30 11:49:00
1 1974-11-28 09:00:00 Ts debe ser mayor o igual a Td Ts=1.1 - Td=1.3 2011-09-30 11:49:00
1 1974-12-01 06:00:00 Ts debe ser mayor o igual a Td Ts=4.0 - Td=4.8 2011-09-30 11:49:00
1 1974-12-03 06:00:00 Ts debe ser mayor o igual a Td Ts=4.6 - Td=6.6 2011-09-30 11:49:00
1 1974-12-06 00:00:00 Ts debe ser mayor o igual a Td Ts=10.4 - Td=14.7 2011-09-30 11:49:00
1 1974-12-06 06:00:00 Ts debe ser mayor o igual a Td Ts=11.6 - Td=14.4 2011-09-30 11:49:00
1 1974-12-21 03:00:00 Ts debe ser mayor o igual a Td Ts=7.6 - Td=9.1 2011-09-30 11:49:00
1 1974-12-27 06:00:00 Ts debe ser mayor o igual a Td Ts=2.2 - Td=2.7 2011-09-30 11:49:00
1 1974-12-29 09:00:00 Ts debe ser mayor o igual a Td Ts=4.2 - Td=4.6 2011-09-30 11:49:00
1 1975-01-03 06:00:00 Ts debe ser mayor o igual a Td Ts=7.0 - Td=8.5 2011-09-30 11:49:00
1 1975-01-19 18:00:00 Ts debe ser mayor o igual a Td Ts=11.0 - Td=11.3 2011-09-30 11:49:00
1 1975-01-21 12:00:00 Ts debe ser mayor o igual a Td Ts=8.9 - Td=10.2 2011-09-30 11:49:00
1 1975-01-28 21:00:00 Ts debe ser mayor o igual a Td Ts=15.8 - Td=16.4 2011-09-30 11:49:00
1 1975-01-29 03:00:00 Ts debe ser mayor o igual a Td Ts=9.8 - Td=10.5 2011-09-30 11:49:00
1 1975-01-29 06:00:00 Ts debe ser mayor o igual a Td Ts=9.2 - Td=9.9 2011-09-30 11:49:00
1 1975-02-01 12:00:00 Ts debe ser mayor o igual a Td Ts=8.4 - Td=8.6 2011-09-30 11:49:00
1 1975-02-06 15:00:00 Ts debe ser mayor o igual a Td Ts=7.0 - Td=7.4 2011-09-30 11:49:00
1 1975-03-04 00:00:00 Ts debe ser mayor o igual a Td Ts=4.6 - Td=5.4 2011-09-30 11:49:00
1 1975-03-04 06:00:00 Ts debe ser mayor o igual a Td Ts=1.1 - Td=2.3 2011-09-30 11:49:00
1 1975-03-04 09:00:00 Ts debe ser mayor o igual a Td Ts=5.0 - Td=5.8 2011-09-30 11:49:00
1 1975-03-06 06:00:00 Ts debe ser mayor o igual a Td Ts=7.6 - Td=8.7 2011-09-30 11:50:00
1 1975-03-07 06:00:00 Ts debe ser mayor o igual a Td Ts=5.6 - Td=6.8 2011-09-30 11:50:00
1 1975-03-12 00:00:00 Ts debe ser mayor o igual a Td Ts=9.2 - Td=9.9 2011-09-30 11:50:00
1 1975-03-12 03:00:00 Ts debe ser mayor o igual a Td Ts=5.0 - Td=6.8 2011-09-30 11:50:00
1 1975-03-12 06:00:00 Ts debe ser mayor o igual a Td Ts=3.5 - Td=4.2 2011-09-30 11:50:00
1 1975-03-14 03:00:00 Ts debe ser mayor o igual a Td Ts=7.8 - Td=8.0 2011-09-30 11:50:00
1 1975-03-14 06:00:00 Ts debe ser mayor o igual a Td Ts=6.2 - Td=6.6 2011-09-30 11:50:00
1 1975-03-17 00:00:00 Ts debe ser mayor o igual a Td Ts=9.4 - Td=9.8 2011-09-30 11:50:00
1 1975-04-04 09:00:00 Ts debe ser mayor o igual a Td Ts=5.2 - Td=5.6 2011-09-30 11:50:00
1 1975-04-10 09:00:00 Ts debe ser mayor o igual a Td Ts=-0.6 - Td=0.9 2011-09-30 11:50:00
1 1975-04-19 06:00:00 Ts debe ser mayor o igual a Td Ts=6.4 - Td=6.6 2011-09-30 11:50:00
1 1975-04-21 12:00:00 Ts debe ser mayor o igual a Td Ts=4.4 - Td=13.0 2011-09-30 11:50:00
1 1975-04-24 15:00:00 Ts debe ser mayor o igual a Td Ts=2.2 - Td=2.7 2011-09-30 11:50:00
1 1975-04-24 18:00:00 Ts debe ser mayor o igual a Td Ts=2.7 - Td=3.1 2011-09-30 11:50:00
1 1975-04-26 03:00:00 Ts debe ser mayor o igual a Td Ts=1.6 - Td=2.1 2011-09-30 11:50:00
1 1975-04-26 12:00:00 Ts debe ser mayor o igual a Td Ts=-0.2 - Td=0.5 2011-09-30 11:50:00
1 1975-05-01 09:00:00 Ts debe ser mayor o igual a Td Ts=11.4 - Td=12.9 2011-09-30 11:50:00
1 1975-05-02 03:00:00 Ts debe ser mayor o igual a Td Ts=-0.8 - Td=1.1 2011-09-30 11:50:00
1 1975-05-02 06:00:00 Ts debe ser mayor o igual a Td Ts=-0.4 - Td=0.6 2011-09-30 11:50:00
1 1975-05-03 15:00:00 Ts debe ser mayor o igual a Td Ts=4.2 - Td=13.7 2011-09-30 11:50:00
1 1975-05-06 00:00:00 Ts debe ser mayor o igual a Td Ts=4.6 - Td=5.4 2011-09-30 11:50:00
1 1975-05-21 15:00:00 Ts debe ser mayor o igual a Td Ts=0.6 - Td=9.8 2011-09-30 11:50:00
1 1975-06-02 06:00:00 Ts debe ser mayor o igual a Td Ts=-0.4 - Td=0.1 2011-09-30 11:50:00
1 1975-06-06 18:00:00 Ts debe ser mayor o igual a Td Ts=-1.4 - Td=-1.1 2011-09-30 11:50:00
1 1975-06-06 21:00:00 Ts debe ser mayor o igual a Td Ts=-1.0 - Td=-0.5 2011-09-30 11:50:00
1 1975-06-07 00:00:00 Ts debe ser mayor o igual a Td Ts=-1.9 - Td=-1.6 2011-09-30 11:50:00
1 1975-06-15 18:00:00 Ts debe ser mayor o igual a Td Ts=0.6 - Td=2.9 2011-09-30 11:50:00
1 1975-06-19 06:00:00 Ts debe ser mayor o igual a Td Ts=-0.4 - Td=0.1 2011-09-30 11:50:00
1 1975-06-19 21:00:00 Ts debe ser mayor o igual a Td Ts=0.4 - Td=0.9 2011-09-30 11:50:00
1 1975-06-20 00:00:00 Ts debe ser mayor o igual a Td Ts=-0.8 - Td=-0.3 2011-09-30 11:50:00
1 1975-06-20 03:00:00 Ts debe ser mayor o igual a Td Ts=-1.4 - Td=2.4 2011-09-30 11:50:00
1 1975-06-22 03:00:00 Ts debe ser mayor o igual a Td Ts=-0.5 - Td=-0.3 2011-09-30 11:50:00
1 1975-06-22 09:00:00 Ts debe ser mayor o igual a Td Ts=-1.0 - Td=-0.5 2011-09-30 11:50:00
1 1975-06-22 12:00:00 Ts debe ser mayor o igual a Td Ts=-0.8 - Td=-0.3 2011-09-30 11:50:00
1 1975-06-22 18:00:00 Ts debe ser mayor o igual a Td Ts=-1.4 - Td=-0.9 2011-09-30 11:50:00
1 1975-06-23 06:00:00 Ts debe ser mayor o igual a Td Ts=-3.4 - Td=0.2 2011-09-30 11:50:00
1 1975-06-23 09:00:00 Ts debe ser mayor o igual a Td Ts=-2.2 - Td=-1.7 2011-09-30 11:50:00
1 1975-06-26 06:00:00 Ts debe ser mayor o igual a Td Ts=-2.8 - Td=0.3 2011-09-30 11:50:00
1 1975-06-26 09:00:00 Ts debe ser mayor o igual a Td Ts=-4.0 - Td=-0.3 2011-09-30 11:50:00
1 1975-06-26 15:00:00 Ts debe ser mayor o igual a Td Ts=-4.0 - Td=1.1 2011-09-30 11:50:00
1 1975-06-26 21:00:00 Ts debe ser mayor o igual a Td Ts=-1.8 - Td=2.1 2011-09-30 11:50:00
1 1975-06-27 00:00:00 Ts debe ser mayor o igual a Td Ts=-1.6 - Td=1.8 2011-09-30 11:50:00
1 1975-06-27 09:00:00 Ts debe ser mayor o igual a Td Ts=-4.8 - Td=-1.5 2011-09-30 11:50:00
1 1975-06-27 12:00:00 Ts debe ser mayor o igual a Td Ts=-3.2 - Td=-1.6 2011-09-30 11:50:00
1 1975-07-01 12:00:00 Ts debe ser mayor o igual a Td Ts=-0.1 - Td=0.6 2011-09-30 11:50:00
1 1975-07-02 03:00:00 Ts debe ser mayor o igual a Td Ts=-0.4 - Td=0.6 2011-09-30 11:50:00
1 1975-07-02 06:00:00 Ts debe ser mayor o igual a Td Ts=-0.4 - Td=1.0 2011-09-30 11:50:00
1 1975-07-02 12:00:00 Ts debe ser mayor o igual a Td Ts=-0.2 - Td=2.1 2011-09-30 11:50:00
1 1975-07-04 18:00:00 Ts debe ser mayor o igual a Td Ts=0.7 - Td=2.3 2011-09-30 11:50:00
1 1975-07-05 09:00:00 Ts debe ser mayor o igual a Td Ts=-0.8 - Td=1.6 2011-09-30 11:50:00
1 1975-07-05 12:00:00 Ts debe ser mayor o igual a Td Ts=-0.6 - Td=1.3 2011-09-30 11:50:00
1 1975-07-05 15:00:00 Ts debe ser mayor o igual a Td Ts=-0.6 - Td=1.3 2011-09-30 11:50:00
1 1975-07-06 03:00:00 Ts debe ser mayor o igual a Td Ts=-0.2 - Td=3.4 2011-09-30 11:50:00
1 1975-07-06 06:00:00 Ts debe ser mayor o igual a Td Ts=-1.0 - Td=1.8 2011-09-30 11:50:00
1 1975-07-06 09:00:00 Ts debe ser mayor o igual a Td Ts=-1.2 - Td=5.3 2011-09-30 11:50:00
1 1975-07-06 12:00:00 Ts debe ser mayor o igual a Td Ts=-0.5 - Td=1.6 2011-09-30 11:50:00
1 1975-07-06 15:00:00 Ts debe ser mayor o igual a Td Ts=-1.6 - Td=5.4 2011-09-30 11:50:00
1 1975-07-06 18:00:00 Ts debe ser mayor o igual a Td Ts=-0.1 - Td=0.1 2011-09-30 11:50:00
1 1975-07-07 06:00:00 Ts debe ser mayor o igual a Td Ts=-3.0 - Td=-0.4 2011-09-30 11:50:00
1 1975-07-07 12:00:00 Ts debe ser mayor o igual a Td Ts=-5.2 - Td=-0.9 2011-09-30 11:51:00
1 1975-07-07 15:00:00 Ts debe ser mayor o igual a Td Ts=-4.0 - Td=-2.6 2011-09-30 11:51:00
1 1975-07-08 00:00:00 Ts debe ser mayor o igual a Td Ts=-9.2 - Td=-3.7 2011-09-30 11:51:00
1 1975-07-08 09:00:00 Ts debe ser mayor o igual a Td Ts=-6.0 - Td=-4.8 2011-09-30 11:51:00
1 1975-07-09 03:00:00 Ts debe ser mayor o igual a Td Ts=-4.0 - Td=4.2 2011-09-30 11:51:00
1 1975-07-09 12:00:00 Ts debe ser mayor o igual a Td Ts=-4.8 - Td=-3.1 2011-09-30 11:51:00
1 1975-07-10 09:00:00 Ts debe ser mayor o igual a Td Ts=-6.3 - Td=14.6 2011-09-30 11:51:00
1 1975-07-10 12:00:00 Ts debe ser mayor o igual a Td Ts=-5.1 - Td=-4.8 2011-09-30 11:51:00
1 1975-07-10 21:00:00 Ts debe ser mayor o igual a Td Ts=-2.6 - Td=-2.1 2011-09-30 11:51:00
1 1975-07-11 15:00:00 Ts debe ser mayor o igual a Td Ts=0.2 - Td=0.7 2011-09-30 11:51:00
1 1975-07-12 06:00:00 Ts debe ser mayor o igual a Td Ts=-2.5 - Td=8.0 2011-09-30 11:51:00
1 1975-07-12 09:00:00 Ts debe ser mayor o igual a Td Ts=-0.4 - Td=0.1 2011-09-30 11:51:00
1 1975-07-13 03:00:00 Ts debe ser mayor o igual a Td Ts=0.2 - Td=0.7 2011-09-30 11:51:00
1 1975-07-13 21:00:00 Ts debe ser mayor o igual a Td Ts=1.2 - Td=2.1 2011-09-30 11:51:00
1 1975-07-14 03:00:00 Ts debe ser mayor o igual a Td Ts=-2.0 - Td=7.2 2011-09-30 11:51:00
1 1975-07-14 12:00:00 Ts debe ser mayor o igual a Td Ts=-4.2 - Td=12.0 2011-09-30 11:51:00
1 1975-07-14 21:00:00 Ts debe ser mayor o igual a Td Ts=0.6 - Td=1.5 2011-09-30 11:51:00
1 1975-07-15 00:00:00 Ts debe ser mayor o igual a Td Ts=-2.0 - Td=6.9 2011-09-30 11:51:00
1 1975-07-17 00:00:00 Ts debe ser mayor o igual a Td Ts=0.6 - Td=15.3 2011-09-30 11:51:00
1 1975-07-23 21:00:00 Ts debe ser mayor o igual a Td Ts=0.2 - Td=0.7 2011-09-30 11:51:00
1 1975-07-24 00:00:00 Ts debe ser mayor o igual a Td Ts=0.2 - Td=3.0 2011-09-30 11:51:00
1 1975-07-24 03:00:00 Ts debe ser mayor o igual a Td Ts=-1.2 - Td=4.2 2011-09-30 11:51:00
1 1975-07-24 06:00:00 Ts debe ser mayor o igual a Td Ts=-1.2 - Td=4.6 2011-09-30 11:51:00
1 1975-07-24 09:00:00 Ts debe ser mayor o igual a Td Ts=0.4 - Td=2.3 2011-09-30 11:51:00
1 1975-07-24 12:00:00 Ts debe ser mayor o igual a Td Ts=0.2 - Td=0.7 2011-09-30 11:51:00
1 1975-07-24 21:00:00 Ts debe ser mayor o igual a Td Ts=0.2 - Td=0.7 2011-09-30 11:51:00
1 1975-07-25 03:00:00 Ts debe ser mayor o igual a Td Ts=-0.2 - Td=1.3 2011-09-30 11:51:00
1 1975-07-25 09:00:00 Ts debe ser mayor o igual a Td Ts=-3.5 - Td=11.1 2011-09-30 11:51:00
1 1975-07-26 00:00:00 Ts debe ser mayor o igual a Td Ts=-1.4 - Td=-0.9 2011-09-30 11:51:00
1 1975-07-26 06:00:00 Ts debe ser mayor o igual a Td Ts=2.0 - Td=13.4 2011-09-30 11:51:00
1 1975-07-28 03:00:00 Ts debe ser mayor o igual a Td Ts=-1.0 - Td=3.6 2011-09-30 11:51:00
1 1975-07-29 03:00:00 Ts debe ser mayor o igual a Td Ts=3.8 - Td=4.2 2011-09-30 11:51:00
1 1975-07-30 06:00:00 Ts debe ser mayor o igual a Td Ts=-1.8 - Td=2.4 2011-09-30 11:51:00
1 1975-07-31 18:00:00 Ts debe ser mayor o igual a Td Ts=-1.4 - Td=1.5 2011-09-30 11:51:00
1 1975-07-31 21:00:00 Ts debe ser mayor o igual a Td Ts=-1.4 - Td=1.1 2011-09-30 11:51:00
1 1975-08-01 00:00:00 Ts debe ser mayor o igual a Td Ts=-1.2 - Td=-0.7 2011-09-30 11:51:00
1 1975-08-01 15:00:00 Ts debe ser mayor o igual a Td Ts=-1.2 - Td=-0.2 2011-09-30 11:51:00
1 1975-08-03 00:00:00 Ts debe ser mayor o igual a Td Ts=0.0 - Td=2.3 2011-09-30 11:51:00
1 1975-08-04 21:00:00 Ts debe ser mayor o igual a Td Ts=0.0 - Td=2.4 2011-09-30 11:51:00
1 1975-08-07 03:00:00 Ts debe ser mayor o igual a Td Ts=0.2 - Td=0.4 2011-09-30 11:51:00
1 1975-08-07 06:00:00 Ts debe ser mayor o igual a Td Ts=-1.5 - Td=-0.2 2011-09-30 11:51:00
1 1975-08-08 09:00:00 Ts debe ser mayor o igual a Td Ts=-0.4 - Td=0.1 2011-09-30 11:51:00
1 1975-08-08 15:00:00 Ts debe ser mayor o igual a Td Ts=0.2 - Td=3.0 2011-09-30 11:51:00
1 1975-08-11 00:00:00 Ts debe ser mayor o igual a Td Ts=4.0 - Td=13.2 2011-09-30 11:51:00
1 1975-08-24 03:00:00 Ts debe ser mayor o igual a Td Ts=-0.5 - Td=5.9 2011-09-30 11:51:00
1 1975-08-29 00:00:00 Ts debe ser mayor o igual a Td Ts=-0.7 - Td=-0.2 2011-09-30 11:51:00
1 1975-09-02 06:00:00 Ts debe ser mayor o igual a Td Ts=0.0 - Td=2.3 2011-09-30 11:51:00
1 1975-09-02 12:00:00 Ts debe ser mayor o igual a Td Ts=-1.0 - Td=5.5 2011-09-30 11:51:00
1 1975-09-10 09:00:00 Ts debe ser mayor o igual a Td Ts=-0.4 - Td=0.3 2011-09-30 11:51:00
1 1975-09-10 12:00:00 Ts debe ser mayor o igual a Td Ts=-1.5 - Td=1.0 2011-09-30 11:51:00
1 1975-09-11 09:00:00 Ts debe ser mayor o igual a Td Ts=-0.6 - Td=4.5 2011-09-30 11:51:00
1 1975-09-13 00:00:00 Ts debe ser mayor o igual a Td Ts=3.9 - Td=13.7 2011-09-30 11:51:00
1 1975-10-05 06:00:00 Ts debe ser mayor o igual a Td Ts=2.6 - Td=16.2 2011-09-30 11:51:00
1 1975-10-08 00:00:00 Ts debe ser mayor o igual a Td Ts=6.4 - Td=6.6 2011-09-30 11:51:00
1 1975-11-07 15:00:00 Ts debe ser mayor o igual a Td Ts=6.0 - Td=10.1 2011-09-30 11:52:00
1 1975-11-09 15:00:00 Ts debe ser mayor o igual a Td Ts=10.2 - Td=14.1 2011-09-30 11:52:00
1 1975-11-10 12:00:00 Ts debe ser mayor o igual a Td Ts=6.8 - Td=7.2 2011-09-30 11:52:00
1 1975-11-10 21:00:00 Ts debe ser mayor o igual a Td Ts=7.0 - Td=8.9 2011-09-30 11:52:00
1 1975-11-14 03:00:00 Ts debe ser mayor o igual a Td Ts=0.8 - Td=12.1 2011-09-30 11:52:00
1 1975-11-27 12:00:00 Ts debe ser mayor o igual a Td Ts=1.6 - Td=2.1 2011-09-30 11:52:00
1 1975-11-29 09:00:00 Ts debe ser mayor o igual a Td Ts=2.3 - Td=3.2 2011-09-30 11:52:00
1 1975-11-30 21:00:00 Ts debe ser mayor o igual a Td Ts=5.0 - Td=5.4 2011-09-30 11:52:00
1 1975-12-03 09:00:00 Ts debe ser mayor o igual a Td Ts=0.8 - Td=12.1 2011-09-30 11:52:00
1 1975-12-06 18:00:00 Ts debe ser mayor o igual a Td Ts=6.6 - Td=6.8 2011-09-30 11:52:00
1 1975-12-07 15:00:00 Ts debe ser mayor o igual a Td Ts=3.2 - Td=3.4 2011-09-30 11:52:00
1 1975-12-08 12:00:00 Ts debe ser mayor o igual a Td Ts=0.0 - Td=0.5 2011-09-30 11:52:00
1 1975-12-14 15:00:00 Ts debe ser mayor o igual a Td Ts=6.0 - Td=12.9 2011-09-30 11:52:00
1 1976-01-11 03:00:00 Ts debe ser mayor o igual a Td Ts=2.0 - Td=6.1 2011-09-30 11:52:00
1 1976-01-18 09:00:00 Ts debe ser mayor o igual a Td Ts=2.0 - Td=2.2 2011-09-30 11:52:00
1 1976-01-23 06:00:00 Ts debe ser mayor o igual a Td Ts=3.1 - Td=5.0 2011-09-30 11:52:00
1 1976-03-04 12:00:00 Ts debe ser mayor o igual a Td Ts=3.0 - Td=12.0 2011-09-30 11:53:00
1 1976-03-12 03:00:00 Ts debe ser mayor o igual a Td Ts=1.2 - Td=9.1 2011-09-30 11:53:00
1 1976-03-17 21:00:00 Ts debe ser mayor o igual a Td Ts=0.8 - Td=10.2 2011-09-30 11:53:00
1 1976-04-15 12:00:00 Ts debe ser mayor o igual a Td Ts=-0.4 - Td=0.6 2011-09-30 11:53:00
1 1976-04-21 15:00:00 Ts debe ser mayor o igual a Td Ts=1.1 - Td=11.3 2011-09-30 11:53:00
1 1976-04-24 12:00:00 Ts debe ser mayor o igual a Td Ts=1.0 - Td=10.7 2011-09-30 11:53:00
1 1976-04-29 12:00:00 Ts debe ser mayor o igual a Td Ts=-0.4 - Td=0.1 2011-09-30 11:53:00
1 1976-05-01 09:00:00 Ts debe ser mayor o igual a Td Ts=1.8 - Td=4.2 2011-09-30 11:53:00
1 1976-05-16 03:00:00 Ts debe ser mayor o igual a Td Ts=-1.6 - Td=6.8 2011-09-30 11:53:00
1 1976-05-17 06:00:00 Ts debe ser mayor o igual a Td Ts=-0.4 - Td=-0.2 2011-09-30 11:53:00
1 1976-05-21 21:00:00 Ts debe ser mayor o igual a Td Ts=5.0 - Td=6.2 2011-09-30 11:53:00
1 1976-05-24 09:00:00 Ts debe ser mayor o igual a Td Ts=0.0 - Td=0.2 2011-09-30 11:53:00
1 1976-05-25 03:00:00 Ts debe ser mayor o igual a Td Ts=1.0 - Td=1.2 2011-09-30 11:53:00
1 1976-05-26 09:00:00 Ts debe ser mayor o igual a Td Ts=-3.0 - Td=3.4 2011-09-30 11:53:00
1 1976-05-31 15:00:00 Ts debe ser mayor o igual a Td Ts=-1.6 - Td=1.8 2011-09-30 11:53:00
1 1976-06-01 00:00:00 Ts debe ser mayor o igual a Td Ts=-0.2 - Td=0.1 2011-09-30 11:53:00
1 1976-06-01 03:00:00 Ts debe ser mayor o igual a Td Ts=0.0 - Td=0.5 2011-09-30 11:53:00
1 1976-06-01 12:00:00 Ts debe ser mayor o igual a Td Ts=-0.4 - Td=0.1 2011-09-30 11:53:00
1 1976-06-03 15:00:00 Ts debe ser mayor o igual a Td Ts=-1.8 - Td=0.2 2011-09-30 11:53:00
1 1976-06-04 00:00:00 Ts debe ser mayor o igual a Td Ts=-0.2 - Td=0.1 2011-09-30 11:53:00
1 1976-06-04 21:00:00 Ts debe ser mayor o igual a Td Ts=-0.2 - Td=0.3 2011-09-30 11:53:00
1 1976-06-05 03:00:00 Ts debe ser mayor o igual a Td Ts=-1.4 - Td=-0.9 2011-09-30 11:53:00
1 1976-06-05 06:00:00 Ts debe ser mayor o igual a Td Ts=-1.4 - Td=-0.4 2011-09-30 11:53:00
1 1976-06-05 09:00:00 Ts debe ser mayor o igual a Td Ts=-2.4 - Td=-1.3 2011-09-30 11:53:00
1 1976-06-05 12:00:00 Ts debe ser mayor o igual a Td Ts=-3.2 - Td=-2.1 2011-09-30 11:53:00
1 1976-06-05 15:00:00 Ts debe ser mayor o igual a Td Ts=-0.6 - Td=0.9 2011-09-30 11:53:00
1 1976-06-06 06:00:00 Ts debe ser mayor o igual a Td Ts=-0.4 - Td=2.5 2011-09-30 11:53:00
1 1976-06-06 21:00:00 Ts debe ser mayor o igual a Td Ts=-3.0 - Td=-0.9 2011-09-30 11:53:00
1 1976-06-07 00:00:00 Ts debe ser mayor o igual a Td Ts=-5.0 - Td=-2.7 2011-09-30 11:53:00
1 1976-06-08 03:00:00 Ts debe ser mayor o igual a Td Ts=2.2 - Td=22.7 2011-09-30 11:53:00
1 1976-06-08 12:00:00 Ts debe ser mayor o igual a Td Ts=0.3 - Td=0.5 2011-09-30 11:53:00
1 1976-06-12 09:00:00 Ts debe ser mayor o igual a Td Ts=-2.0 - Td=-0.2 2011-09-30 11:53:00
1 1976-06-14 03:00:00 Ts debe ser mayor o igual a Td Ts=-2.0 - Td=-1.5 2011-09-30 11:53:00
1 1976-06-15 21:00:00 Ts debe ser mayor o igual a Td Ts=1.3 - Td=5.3 2011-09-30 11:53:00
1 1976-06-20 09:00:00 Ts debe ser mayor o igual a Td Ts=-1.2 - Td=-0.7 2011-09-30 11:53:00
1 1976-06-20 12:00:00 Ts debe ser mayor o igual a Td Ts=-1.0 - Td=-0.5 2011-09-30 11:53:00
1 1976-06-23 15:00:00 Ts debe ser mayor o igual a Td Ts=2.0 - Td=2.5 2011-09-30 11:53:00
1 1976-06-24 06:00:00 Ts debe ser mayor o igual a Td Ts=-4.0 - Td=2.3 2011-09-30 11:53:00
1 1976-06-24 18:00:00 Ts debe ser mayor o igual a Td Ts=-1.9 - Td=-1.4 2011-09-30 11:53:00
1 1976-06-25 15:00:00 Ts debe ser mayor o igual a Td Ts=-0.4 - Td=0.3 2011-09-30 11:53:00
1 1976-06-26 06:00:00 Ts debe ser mayor o igual a Td Ts=-1.8 - Td=5.5 2011-09-30 11:53:00
1 1976-06-27 09:00:00 Ts debe ser mayor o igual a Td Ts=-3.0 - Td=-0.4 2011-09-30 11:54:00
1 1976-06-27 12:00:00 Ts debe ser mayor o igual a Td Ts=-2.6 - Td=1.3 2011-09-30 11:54:00
1 1976-06-28 00:00:00 Ts debe ser mayor o igual a Td Ts=-4.8 - Td=-1.5 2011-09-30 11:54:00
1 1976-06-28 15:00:00 Ts debe ser mayor o igual a Td Ts=-2.5 - Td=8.4 2011-09-30 11:54:00
1 1976-06-28 18:00:00 Ts debe ser mayor o igual a Td Ts=-1.6 - Td=-1.1 2011-09-30 11:54:00
1 1976-06-29 00:00:00 Ts debe ser mayor o igual a Td Ts=-2.7 - Td=-1.9 2011-09-30 11:54:00
1 1976-06-29 12:00:00 Ts debe ser mayor o igual a Td Ts=-0.2 - Td=0.3 2011-09-30 11:54:00
1 1976-07-01 21:00:00 Ts debe ser mayor o igual a Td Ts=0.0 - Td=0.2 2011-09-30 11:54:00
1 1976-07-02 09:00:00 Ts debe ser mayor o igual a Td Ts=-1.4 - Td=1.5 2011-09-30 11:54:00
1 1976-07-06 18:00:00 Ts debe ser mayor o igual a Td Ts=1.8 - Td=2.3 2011-09-30 11:54:00
1 1976-07-16 09:00:00 Ts debe ser mayor o igual a Td Ts=-0.3 - Td=-0.1 2011-09-30 11:54:00
1 1976-07-18 09:00:00 Ts debe ser mayor o igual a Td Ts=-2.2 - Td=2.5 2011-09-30 11:54:00
1 1976-07-18 12:00:00 Ts debe ser mayor o igual a Td Ts=-3.4 - Td=-2.3 2011-09-30 11:54:00
1 1976-07-19 12:00:00 Ts debe ser mayor o igual a Td Ts=0.0 - Td=4.0 2011-09-30 11:54:00
1 1976-07-21 06:00:00 Ts debe ser mayor o igual a Td Ts=0.6 - Td=1.5 2011-09-30 11:54:00
1 1976-07-22 21:00:00 Ts debe ser mayor o igual a Td Ts=-2.8 - Td=-2.3 2011-09-30 11:54:00
1 1976-07-23 03:00:00 Ts debe ser mayor o igual a Td Ts=-4.6 - Td=12.7 2011-09-30 11:54:00
1 1976-07-23 06:00:00 Ts debe ser mayor o igual a Td Ts=-5.5 - Td=-0.7 2011-09-30 11:54:00
1 1976-07-28 21:00:00 Ts debe ser mayor o igual a Td Ts=-4.4 - Td=-3.8 2011-09-30 11:54:00
1 1976-08-04 12:00:00 Ts debe ser mayor o igual a Td Ts=2.0 - Td=6.2 2011-09-30 11:54:00
1 1976-08-07 12:00:00 Ts debe ser mayor o igual a Td Ts=-1.0 - Td=1.0 2011-09-30 11:54:00
1 1976-08-09 09:00:00 Ts debe ser mayor o igual a Td Ts=-1.2 - Td=4.4 2011-09-30 11:54:00
1 1976-08-09 12:00:00 Ts debe ser mayor o igual a Td Ts=-3.2 - Td=-2.1 2011-09-30 11:54:00
1 1976-08-15 12:00:00 Ts debe ser mayor o igual a Td Ts=-1.0 - Td=4.5 2011-09-30 11:54:00
1 1976-08-15 21:00:00 Ts debe ser mayor o igual a Td Ts=-2.9 - Td=-2.4 2011-09-30 11:54:00
1 1976-08-16 00:00:00 Ts debe ser mayor o igual a Td Ts=-3.0 - Td=-2.2 2011-09-30 11:54:00
1 1976-08-21 21:00:00 Ts debe ser mayor o igual a Td Ts=-0.3 - Td=0.9 2011-09-30 11:54:00
1 1976-08-27 00:00:00 Ts debe ser mayor o igual a Td Ts=-0.2 - Td=1.7 2011-09-30 11:54:00
1 1976-09-01 06:00:00 Ts debe ser mayor o igual a Td Ts=0.2 - Td=1.6 2011-09-30 11:54:00
1 1976-09-01 21:00:00 Ts debe ser mayor o igual a Td Ts=-2.0 - Td=-1.7 2011-09-30 11:54:00
1 1976-09-17 03:00:00 Ts debe ser mayor o igual a Td Ts=-1.0 - Td=5.1 2011-09-30 11:54:00
1 1976-09-21 09:00:00 Ts debe ser mayor o igual a Td Ts=-0.6 - Td=0.4 2011-09-30 11:54:00
1 1976-09-21 12:00:00 Ts debe ser mayor o igual a Td Ts=-1.2 - Td=-0.7 2011-09-30 11:54:00
1 1976-09-30 09:00:00 Ts debe ser mayor o igual a Td Ts=-1.0 - Td=-0.5 2011-09-30 11:54:00
1 1976-10-01 06:00:00 Ts debe ser mayor o igual a Td Ts=-0.8 - Td=-0.5 2011-09-30 11:54:00
1 1976-10-29 00:00:00 Ts debe ser mayor o igual a Td Ts=5.2 - Td=7.0 2011-09-30 11:55:00
1 1976-11-06 09:00:00 Ts debe ser mayor o igual a Td Ts=4.2 - Td=6.2 2011-09-30 11:55:00
1 1977-02-08 09:00:00 Ts debe ser mayor o igual a Td Ts=0.8 - Td=13.2 2011-09-30 11:55:00
1 1977-02-23 12:00:00 Ts debe ser mayor o igual a Td Ts=11.0 - Td=16.1 2011-09-30 11:55:00
1 1977-02-25 09:00:00 Ts debe ser mayor o igual a Td Ts=6.1 - Td=6.7 2011-09-30 11:56:00
1 1977-03-14 03:00:00 Ts debe ser mayor o igual a Td Ts=5.6 - Td=5.8 2011-09-30 11:56:00
1 1977-04-27 18:00:00 Ts debe ser mayor o igual a Td Ts=2.0 - Td=7.9 2011-09-30 11:56:00
1 1977-04-30 21:00:00 Ts debe ser mayor o igual a Td Ts=4.2 - Td=5.8 2011-09-30 11:56:00
1 1977-05-02 09:00:00 Ts debe ser mayor o igual a Td Ts=-1.2 - Td=-0.7 2011-09-30 11:56:00
1 1977-05-03 21:00:00 Ts debe ser mayor o igual a Td Ts=-0.4 - Td=-0.2 2011-09-30 11:56:00
1 1977-05-04 15:00:00 Ts debe ser mayor o igual a Td Ts=-8.5 - Td=8.1 2011-09-30 11:56:00
1 1977-05-08 12:00:00 Ts debe ser mayor o igual a Td Ts=0.0 - Td=5.2 2011-09-30 11:56:00
1 1977-06-14 09:00:00 Ts debe ser mayor o igual a Td Ts=-1.6 - Td=-1.3 2011-09-30 11:56:00
1 1977-06-17 03:00:00 Ts debe ser mayor o igual a Td Ts=-3.0 - Td=-1.4 2011-09-30 11:56:00
1 1977-06-18 18:00:00 Ts debe ser mayor o igual a Td Ts=-1.0 - Td=-0.5 2011-09-30 11:56:00
1 1977-06-23 12:00:00 Ts debe ser mayor o igual a Td Ts=-1.2 - Td=-0.7 2011-09-30 11:57:00
1 1977-06-23 21:00:00 Ts debe ser mayor o igual a Td Ts=-3.2 - Td=2.6 2011-09-30 11:57:00
1 1977-06-24 03:00:00 Ts debe ser mayor o igual a Td Ts=-5.8 - Td=-4.0 2011-09-30 11:57:00
1 1977-06-26 12:00:00 Ts debe ser mayor o igual a Td Ts=0.6 - Td=1.1 2011-09-30 11:57:00
1 1977-07-01 12:00:00 Ts debe ser mayor o igual a Td Ts=-1.4 - Td=0.1 2011-09-30 11:57:00
1 1977-07-07 03:00:00 Ts debe ser mayor o igual a Td Ts=0.4 - Td=4.1 2011-09-30 11:57:00
1 1977-07-07 09:00:00 Ts debe ser mayor o igual a Td Ts=-1.1 - Td=1.1 2011-09-30 11:57:00
1 1977-07-07 12:00:00 Ts debe ser mayor o igual a Td Ts=-1.5 - Td=-0.5 2011-09-30 11:57:00
1 1977-07-12 00:00:00 Ts debe ser mayor o igual a Td Ts=-7.0 - Td=-6.7 2011-09-30 11:57:00
1 1977-07-12 09:00:00 Ts debe ser mayor o igual a Td Ts=-11.5 - Td=-9.5 2011-09-30 11:57:00
1 1977-07-12 15:00:00 Ts debe ser mayor o igual a Td Ts=-5.0 - Td=-4.4 2011-09-30 11:57:00
1 1977-07-15 12:00:00 Ts debe ser mayor o igual a Td Ts=-6.9 - Td=-6.6 2011-09-30 11:57:00
1 1977-07-16 00:00:00 Ts debe ser mayor o igual a Td Ts=-6.0 - Td=-4.5 2011-09-30 11:57:00
1 1977-07-18 15:00:00 Ts debe ser mayor o igual a Td Ts=1.8 - Td=2.3 2011-09-30 11:57:00
1 1977-07-19 09:00:00 Ts debe ser mayor o igual a Td Ts=-3.8 - Td=11.1 2011-09-30 11:57:00
1 1977-07-20 03:00:00 Ts debe ser mayor o igual a Td Ts=-2.2 - Td=-0.1 2011-09-30 11:57:00
1 1977-07-21 03:00:00 Ts debe ser mayor o igual a Td Ts=-1.4 - Td=0.1 2011-09-30 11:57:00
1 1977-07-25 06:00:00 Ts debe ser mayor o igual a Td Ts=-1.4 - Td=1.5 2011-09-30 11:57:00
1 1977-07-25 15:00:00 Ts debe ser mayor o igual a Td Ts=-0.6 - Td=-0.1 2011-09-30 11:57:00
1 1977-08-02 15:00:00 Ts debe ser mayor o igual a Td Ts=-1.0 - Td=-0.7 2011-09-30 11:57:00
1 1977-08-03 21:00:00 Ts debe ser mayor o igual a Td Ts=-3.4 - Td=-2.8 2011-09-30 11:57:00
1 1977-08-04 06:00:00 Ts debe ser mayor o igual a Td Ts=-6.6 - Td=-5.3 2011-09-30 11:57:00
1 1977-08-05 03:00:00 Ts debe ser mayor o igual a Td Ts=-10.8 - Td=-9.2 2011-09-30 11:57:00
1 1977-08-05 09:00:00 Ts debe ser mayor o igual a Td Ts=-10.4 - Td=-9.6 2011-09-30 11:57:00
1 1977-08-08 03:00:00 Ts debe ser mayor o igual a Td Ts=-7.0 - Td=-6.3 2011-09-30 11:57:00
1 1977-08-13 03:00:00 Ts debe ser mayor o igual a Td Ts=-0.8 - Td=0.7 2011-09-30 11:57:00
1 1977-08-14 09:00:00 Ts debe ser mayor o igual a Td Ts=-2.2 - Td=0.3 2011-09-30 11:57:00
1 1977-08-28 09:00:00 Ts debe ser mayor o igual a Td Ts=-1.6 - Td=-0.6 2011-09-30 11:57:00
1 1977-08-30 15:00:00 Ts debe ser mayor o igual a Td Ts=-0.8 - Td=1.1 2011-09-30 11:57:00
1 1977-08-31 09:00:00 Ts debe ser mayor o igual a Td Ts=-2.2 - Td=4.9 2011-09-30 11:57:00
1 1977-09-08 00:00:00 Ts debe ser mayor o igual a Td Ts=-0.8 - Td=0.4 2011-09-30 11:57:00
1 1977-09-09 03:00:00 Ts debe ser mayor o igual a Td Ts=-3.0 - Td=9.6 2011-09-30 11:57:00
1 1977-09-13 09:00:00 Ts debe ser mayor o igual a Td Ts=-5.3 - Td=0.2 2011-09-30 11:57:00
1 1977-09-13 15:00:00 Ts debe ser mayor o igual a Td Ts=-1.0 - Td=3.7 2011-09-30 11:57:00
1 1977-09-14 21:00:00 Ts debe ser mayor o igual a Td Ts=-1.2 - Td=-0.2 2011-09-30 11:57:00
1 1977-09-29 09:00:00 Ts debe ser mayor o igual a Td Ts=-1.6 - Td=-0.1 2011-09-30 11:57:00
1 1977-09-29 21:00:00 Ts debe ser mayor o igual a Td Ts=-0.8 - Td=-0.3 2011-09-30 11:57:00
1 1977-10-01 06:00:00 Ts debe ser mayor o igual a Td Ts=-1.0 - Td=-0.5 2011-09-30 11:57:00
1 1977-10-18 09:00:00 Ts debe ser mayor o igual a Td Ts=-1.8 - Td=-1.3 2011-09-30 11:57:00
1 1978-02-18 03:00:00 Ts debe ser mayor o igual a Td Ts=11.8 - Td=12.8 2011-09-30 11:59:00
1 1978-02-22 21:00:00 Ts debe ser mayor o igual a Td Ts=9.0 - Td=9.4 2011-09-30 11:59:00
1 1978-02-23 06:00:00 Ts debe ser mayor o igual a Td Ts=4.0 - Td=4.4 2011-09-30 11:59:00
1 1978-02-23 09:00:00 Ts debe ser mayor o igual a Td Ts=2.6 - Td=3.5 2011-09-30 11:59:00
1 1978-02-23 12:00:00 Ts debe ser mayor o igual a Td Ts=4.3 - Td=5.5 2011-09-30 11:59:00
1 1978-02-24 18:00:00 Ts debe ser mayor o igual a Td Ts=10.0 - Td=10.4 2011-09-30 11:59:00
1 1978-04-04 15:00:00 Ts debe ser mayor o igual a Td Ts=1.8 - Td=2.3 2011-09-30 11:59:00
1 1978-04-14 18:00:00 Ts debe ser mayor o igual a Td Ts=3.8 - Td=4.0 2011-09-30 11:59:00
1 1978-04-20 06:00:00 Ts debe ser mayor o igual a Td Ts=6.0 - Td=6.4 2011-09-30 11:59:00
1 1978-05-15 03:00:00 Ts debe ser mayor o igual a Td Ts=-0.5 - Td=0.5 2011-09-30 11:59:00
1 1978-05-15 09:00:00 Ts debe ser mayor o igual a Td Ts=-1.0 - Td=-0.7 2011-09-30 11:59:00
1 1978-05-16 00:00:00 Ts debe ser mayor o igual a Td Ts=-1.0 - Td=1.0 2011-09-30 11:59:00
1 1978-05-16 09:00:00 Ts debe ser mayor o igual a Td Ts=-3.0 - Td=-0.4 2011-09-30 11:59:00
1 1978-05-16 12:00:00 Ts debe ser mayor o igual a Td Ts=-2.2 - Td=-1.7 2011-09-30 11:59:00
1 1978-06-03 00:00:00 Ts debe ser mayor o igual a Td Ts=-1.7 - Td=0.1 2011-09-30 11:59:00
1 1978-06-19 21:00:00 Ts debe ser mayor o igual a Td Ts=-0.5 - Td=-0.2 2011-09-30 12:00:00
1 1978-06-20 00:00:00 Ts debe ser mayor o igual a Td Ts=-3.6 - Td=-3.3 2011-09-30 12:00:00
1 1978-06-20 06:00:00 Ts debe ser mayor o igual a Td Ts=-3.9 - Td=-3.6 2011-09-30 12:00:00
1 1978-06-20 18:00:00 Ts debe ser mayor o igual a Td Ts=0.6 - Td=1.1 2011-09-30 12:00:00
1 1978-06-21 12:00:00 Ts debe ser mayor o igual a Td Ts=-2.0 - Td=-1.5 2011-09-30 12:00:00
1 1978-06-22 12:00:00 Ts debe ser mayor o igual a Td Ts=-0.1 - Td=0.2 2011-09-30 12:00:00
1 1978-06-24 21:00:00 Ts debe ser mayor o igual a Td Ts=-1.8 - Td=-1.3 2011-09-30 12:00:00
1 1978-06-27 06:00:00 Ts debe ser mayor o igual a Td Ts=-1.0 - Td=1.4 2011-09-30 12:00:00
1 1978-06-28 18:00:00 Ts debe ser mayor o igual a Td Ts=-1.4 - Td=-0.9 2011-09-30 12:00:00
1 1978-06-29 12:00:00 Ts debe ser mayor o igual a Td Ts=-2.4 - Td=-1.3 2011-09-30 12:00:00
1 1978-06-30 21:00:00 Ts debe ser mayor o igual a Td Ts=-3.0 - Td=-1.9 2011-09-30 12:00:00
1 1978-07-01 00:00:00 Ts debe ser mayor o igual a Td Ts=-2.2 - Td=-1.9 2011-09-30 12:00:00
1 1978-07-01 21:00:00 Ts debe ser mayor o igual a Td Ts=-1.2 - Td=0.3 2011-09-30 12:00:00
1 1978-07-02 06:00:00 Ts debe ser mayor o igual a Td Ts=-5.2 - Td=-4.6 2011-09-30 12:00:00
1 1978-07-04 21:00:00 Ts debe ser mayor o igual a Td Ts=-2.4 - Td=-1.9 2011-09-30 12:00:00
1 1978-07-05 00:00:00 Ts debe ser mayor o igual a Td Ts=-2.8 - Td=-0.2 2011-09-30 12:00:00
1 1978-07-05 03:00:00 Ts debe ser mayor o igual a Td Ts=-2.6 - Td=-2.1 2011-09-30 12:00:00
1 1978-07-05 06:00:00 Ts debe ser mayor o igual a Td Ts=-3.0 - Td=-2.4 2011-09-30 12:00:00
1 1978-07-05 09:00:00 Ts debe ser mayor o igual a Td Ts=-1.6 - Td=-1.3 2011-09-30 12:00:00
1 1978-07-05 12:00:00 Ts debe ser mayor o igual a Td Ts=-2.6 - Td=-2.1 2011-09-30 12:00:00
1 1978-07-05 15:00:00 Ts debe ser mayor o igual a Td Ts=-2.8 - Td=-2.2 2011-09-30 12:00:00
1 1978-07-05 21:00:00 Ts debe ser mayor o igual a Td Ts=-4.4 - Td=-3.8 2011-09-30 12:00:00
1 1978-07-06 03:00:00 Ts debe ser mayor o igual a Td Ts=-5.2 - Td=-4.0 2011-09-30 12:00:00
1 1978-07-06 18:00:00 Ts debe ser mayor o igual a Td Ts=-1.0 - Td=3.2 2011-09-30 12:00:00
1 1978-07-11 18:00:00 Ts debe ser mayor o igual a Td Ts=-3.2 - Td=-2.9 2011-09-30 12:00:00
1 1978-07-11 21:00:00 Ts debe ser mayor o igual a Td Ts=-6.0 - Td=-5.4 2011-09-30 12:00:00
1 1978-07-12 06:00:00 Ts debe ser mayor o igual a Td Ts=-8.6 - Td=-7.9 2011-09-30 12:00:00
1 1978-07-12 09:00:00 Ts debe ser mayor o igual a Td Ts=-7.3 - Td=-6.6 2011-09-30 12:00:00
1 1978-07-13 21:00:00 Ts debe ser mayor o igual a Td Ts=-4.1 - Td=-3.8 2011-09-30 12:00:00
1 1978-07-14 06:00:00 Ts debe ser mayor o igual a Td Ts=-5.3 - Td=-4.4 2011-09-30 12:00:00
1 1978-07-14 12:00:00 Ts debe ser mayor o igual a Td Ts=-9.8 - Td=-8.3 2011-09-30 12:00:00
1 1978-07-14 21:00:00 Ts debe ser mayor o igual a Td Ts=-4.2 - Td=-3.6 2011-09-30 12:00:00
1 1978-07-15 03:00:00 Ts debe ser mayor o igual a Td Ts=-1.2 - Td=-0.7 2011-09-30 12:00:00
1 1978-07-19 12:00:00 Ts debe ser mayor o igual a Td Ts=-0.2 - Td=0.0 2011-09-30 12:00:00
1 1978-07-21 09:00:00 Ts debe ser mayor o igual a Td Ts=-1.4 - Td=-0.9 2011-09-30 12:00:00
1 1978-07-21 21:00:00 Ts debe ser mayor o igual a Td Ts=0.0 - Td=0.7 2011-09-30 12:00:00
1 1978-07-24 09:00:00 Ts debe ser mayor o igual a Td Ts=-2.4 - Td=-1.3 2011-09-30 12:00:00
1 1978-07-26 03:00:00 Ts debe ser mayor o igual a Td Ts=-1.3 - Td=-0.8 2011-09-30 12:00:00
1 1978-07-29 09:00:00 Ts debe ser mayor o igual a Td Ts=-0.2 - Td=1.2 2011-09-30 12:00:00
1 1978-07-30 00:00:00 Ts debe ser mayor o igual a Td Ts=-0.8 - Td=1.1 2011-09-30 12:00:00
1 1978-08-04 00:00:00 Ts debe ser mayor o igual a Td Ts=-2.6 - Td=-2.1 2011-09-30 12:00:00
1 1978-08-04 06:00:00 Ts debe ser mayor o igual a Td Ts=-1.5 - Td=-1.2 2011-09-30 12:00:00
1 1978-08-12 12:00:00 Ts debe ser mayor o igual a Td Ts=0.0 - Td=0.3 2011-09-30 12:00:00
1 1978-08-14 03:00:00 Ts debe ser mayor o igual a Td Ts=2.2 - Td=3.1 2011-09-30 12:00:00
1 1978-08-21 03:00:00 Ts debe ser mayor o igual a Td Ts=-5.1 - Td=4.4 2011-09-30 12:00:00
1 1978-09-01 06:00:00 Ts debe ser mayor o igual a Td Ts=-4.0 - Td=-1.6 2011-09-30 12:00:00
1 1978-09-17 06:00:00 Ts debe ser mayor o igual a Td Ts=1.2 - Td=2.1 2011-09-30 12:00:00
1 1978-10-01 18:00:00 Ts debe ser mayor o igual a Td Ts=2.8 - Td=11.6 2011-09-30 12:01:00
1 1978-11-09 12:00:00 Ts debe ser mayor o igual a Td Ts=2.0 - Td=3.8 2011-09-30 12:01:00
1 1978-11-15 12:00:00 Ts debe ser mayor o igual a Td Ts=5.6 - Td=6.8 2011-09-30 12:01:00
1 1978-11-21 03:00:00 Ts debe ser mayor o igual a Td Ts=0.5 - Td=9.6 2011-09-30 12:01:00
1 1979-02-27 09:00:00 Ts debe ser mayor o igual a Td Ts=5.4 - Td=13.0 2011-09-30 12:02:00
1 1979-03-05 06:00:00 Ts debe ser mayor o igual a Td Ts=2.6 - Td=2.8 2011-09-30 12:02:00
1 1979-03-15 15:00:00 Ts debe ser mayor o igual a Td Ts=1.0 - Td=11.7 2011-09-30 12:02:00
1 1979-04-11 21:00:00 Ts debe ser mayor o igual a Td Ts=6.6 - Td=9.2 2011-09-30 12:02:00
1 1979-05-02 18:00:00 Ts debe ser mayor o igual a Td Ts=-0.2 - Td=0.3 2011-09-30 12:02:00
1 1979-05-03 06:00:00 Ts debe ser mayor o igual a Td Ts=-0.3 - Td=-0.1 2011-09-30 12:02:00
1 1979-05-05 00:00:00 Ts debe ser mayor o igual a Td Ts=-0.3 - Td=0.4 2011-09-30 12:02:00
1 1979-05-06 12:00:00 Ts debe ser mayor o igual a Td Ts=0.6 - Td=1.8 2011-09-30 12:02:00
1 1979-05-06 21:00:00 Ts debe ser mayor o igual a Td Ts=1.6 - Td=15.8 2011-09-30 12:02:00
1 1979-05-11 09:00:00 Ts debe ser mayor o igual a Td Ts=-3.4 - Td=-2.3 2011-09-30 12:02:00
1 1979-05-11 12:00:00 Ts debe ser mayor o igual a Td Ts=-3.6 - Td=-3.3 2011-09-30 12:02:00
1 1979-05-20 06:00:00 Ts debe ser mayor o igual a Td Ts=-2.0 - Td=-0.5 2011-09-30 12:02:00
1 1979-06-01 03:00:00 Ts debe ser mayor o igual a Td Ts=-0.8 - Td=3.3 2011-09-30 12:03:00
1 1979-06-11 09:00:00 Ts debe ser mayor o igual a Td Ts=-0.4 - Td=0.1 2011-09-30 12:03:00
1 1979-06-15 00:00:00 Ts debe ser mayor o igual a Td Ts=2.3 - Td=17.9 2011-09-30 12:03:00
1 1979-07-07 03:00:00 Ts debe ser mayor o igual a Td Ts=-1.2 - Td=-0.7 2011-09-30 12:03:00
1 1979-07-12 15:00:00 Ts debe ser mayor o igual a Td Ts=-0.2 - Td=2.4 2011-09-30 12:03:00
1 1979-07-13 03:00:00 Ts debe ser mayor o igual a Td Ts=-0.6 - Td=0.6 2011-09-30 12:03:00
1 1979-07-22 06:00:00 Ts debe ser mayor o igual a Td Ts=-0.8 - Td=-0.3 2011-09-30 12:03:00
1 1979-07-22 18:00:00 Ts debe ser mayor o igual a Td Ts=-0.8 - Td=0.2 2011-09-30 12:03:00
1 1979-07-22 21:00:00 Ts debe ser mayor o igual a Td Ts=-0.7 - Td=1.0 2011-09-30 12:03:00
1 1979-07-23 00:00:00 Ts debe ser mayor o igual a Td Ts=-1.0 - Td=1.2 2011-09-30 12:03:00
1 1979-07-23 03:00:00 Ts debe ser mayor o igual a Td Ts=-1.0 - Td=1.4 2011-09-30 12:03:00
1 1979-07-23 06:00:00 Ts debe ser mayor o igual a Td Ts=-0.8 - Td=0.7 2011-09-30 12:03:00
1 1979-07-23 09:00:00 Ts debe ser mayor o igual a Td Ts=-0.8 - Td=0.7 2011-09-30 12:03:00
1 1979-07-23 12:00:00 Ts debe ser mayor o igual a Td Ts=-1.0 - Td=0.9 2011-09-30 12:03:00
1 1979-07-23 15:00:00 Ts debe ser mayor o igual a Td Ts=-1.4 - Td=1.0 2011-09-30 12:03:00
1 1979-07-23 18:00:00 Ts debe ser mayor o igual a Td Ts=-1.0 - Td=0.7 2011-09-30 12:03:00
1 1979-07-23 21:00:00 Ts debe ser mayor o igual a Td Ts=-1.6 - Td=0.9 2011-09-30 12:03:00
1 1979-07-24 00:00:00 Ts debe ser mayor o igual a Td Ts=-2.8 - Td=0.5 2011-09-30 12:03:00
1 1979-07-24 03:00:00 Ts debe ser mayor o igual a Td Ts=-3.8 - Td=-1.1 2011-09-30 12:03:00
1 1979-07-24 15:00:00 Ts debe ser mayor o igual a Td Ts=-1.0 - Td=1.4 2011-09-30 12:03:00
1 1979-07-25 09:00:00 Ts debe ser mayor o igual a Td Ts=-3.4 - Td=-2.3 2011-09-30 12:03:00
1 1979-07-25 12:00:00 Ts debe ser mayor o igual a Td Ts=-3.6 - Td=-2.5 2011-09-30 12:03:00
1 1979-07-25 15:00:00 Ts debe ser mayor o igual a Td Ts=-1.7 - Td=1.7 2011-09-30 12:03:00
1 1979-07-25 21:00:00 Ts debe ser mayor o igual a Td Ts=-0.5 - Td=0.5 2011-09-30 12:03:00
1 1979-07-26 00:00:00 Ts debe ser mayor o igual a Td Ts=-4.9 - Td=0.1 2011-09-30 12:03:00
1 1979-07-26 03:00:00 Ts debe ser mayor o igual a Td Ts=-5.6 - Td=-0.2 2011-09-30 12:03:00
1 1979-07-26 06:00:00 Ts debe ser mayor o igual a Td Ts=-8.0 - Td=-2.6 2011-09-30 12:03:00
1 1979-07-26 15:00:00 Ts debe ser mayor o igual a Td Ts=-2.8 - Td=2.5 2011-09-30 12:03:00
1 1979-07-27 15:00:00 Ts debe ser mayor o igual a Td Ts=-0.4 - Td=0.6 2011-09-30 12:03:00
1 1979-07-28 03:00:00 Ts debe ser mayor o igual a Td Ts=-1.4 - Td=-0.4 2011-09-30 12:03:00
1 1979-07-28 06:00:00 Ts debe ser mayor o igual a Td Ts=-1.2 - Td=0.8 2011-09-30 12:03:00
1 1979-07-29 12:00:00 Ts debe ser mayor o igual a Td Ts=1.4 - Td=1.9 2011-09-30 12:03:00
1 1979-07-29 18:00:00 Ts debe ser mayor o igual a Td Ts=2.0 - Td=2.2 2011-09-30 12:03:00
1 1979-07-30 00:00:00 Ts debe ser mayor o igual a Td Ts=0.4 - Td=0.6 2011-09-30 12:03:00
1 1979-07-30 09:00:00 Ts debe ser mayor o igual a Td Ts=-0.4 - Td=0.6 2011-09-30 12:03:00
1 1979-07-30 12:00:00 Ts debe ser mayor o igual a Td Ts=-0.8 - Td=0.2 2011-09-30 12:03:00
1 1979-07-31 03:00:00 Ts debe ser mayor o igual a Td Ts=-0.2 - Td=0.3 2011-09-30 12:03:00
1 1979-08-01 00:00:00 Ts debe ser mayor o igual a Td Ts=-2.0 - Td=2.7 2011-09-30 12:03:00
1 1979-08-01 03:00:00 Ts debe ser mayor o igual a Td Ts=-2.0 - Td=2.3 2011-09-30 12:03:00
1 1979-08-01 06:00:00 Ts debe ser mayor o igual a Td Ts=-2.4 - Td=-0.8 2011-09-30 12:03:00
1 1979-08-02 09:00:00 Ts debe ser mayor o igual a Td Ts=-2.8 - Td=-0.2 2011-09-30 12:03:00
1 1979-08-02 12:00:00 Ts debe ser mayor o igual a Td Ts=-3.2 - Td=1.7 2011-09-30 12:03:00
1 1979-08-04 12:00:00 Ts debe ser mayor o igual a Td Ts=-0.8 - Td=-0.3 2011-09-30 12:03:00
1 1979-08-04 18:00:00 Ts debe ser mayor o igual a Td Ts=0.4 - Td=3.9 2011-09-30 12:03:00
1 1979-08-06 00:00:00 Ts debe ser mayor o igual a Td Ts=-1.0 - Td=-0.5 2011-09-30 12:03:00
1 1979-08-07 00:00:00 Ts debe ser mayor o igual a Td Ts=-1.4 - Td=1.5 2011-09-30 12:03:00
1 1979-08-08 21:00:00 Ts debe ser mayor o igual a Td Ts=0.0 - Td=0.2 2011-09-30 12:03:00
1 1979-08-10 09:00:00 Ts debe ser mayor o igual a Td Ts=-0.2 - Td=0.3 2011-09-30 12:03:00
1 1979-08-10 15:00:00 Ts debe ser mayor o igual a Td Ts=-0.6 - Td=0.4 2011-09-30 12:03:00
1 1979-08-11 00:00:00 Ts debe ser mayor o igual a Td Ts=-2.6 - Td=1.8 2011-09-30 12:03:00
1 1979-08-11 06:00:00 Ts debe ser mayor o igual a Td Ts=-2.1 - Td=0.9 2011-09-30 12:03:00
1 1979-08-14 18:00:00 Ts debe ser mayor o igual a Td Ts=-0.4 - Td=0.8 2011-09-30 12:03:00
1 1979-08-14 21:00:00 Ts debe ser mayor o igual a Td Ts=-2.0 - Td=-1.5 2011-09-30 12:03:00
1 1979-08-15 06:00:00 Ts debe ser mayor o igual a Td Ts=-3.2 - Td=-0.1 2011-09-30 12:03:00
1 1979-08-15 21:00:00 Ts debe ser mayor o igual a Td Ts=-0.1 - Td=0.1 2011-09-30 12:03:00
1 1979-08-16 03:00:00 Ts debe ser mayor o igual a Td Ts=-3.0 - Td=-2.5 2011-09-30 12:03:00
1 1979-08-16 06:00:00 Ts debe ser mayor o igual a Td Ts=-3.0 - Td=-2.5 2011-09-30 12:03:00
1 1979-08-16 15:00:00 Ts debe ser mayor o igual a Td Ts=-2.2 - Td=4.2 2011-09-30 12:03:00
1 1979-08-17 00:00:00 Ts debe ser mayor o igual a Td Ts=-1.6 - Td=-1.1 2011-09-30 12:03:00
1 1979-08-17 03:00:00 Ts debe ser mayor o igual a Td Ts=-1.4 - Td=-0.9 2011-09-30 12:03:00
1 1979-08-17 06:00:00 Ts debe ser mayor o igual a Td Ts=-2.6 - Td=-2.1 2011-09-30 12:03:00
1 1979-08-17 15:00:00 Ts debe ser mayor o igual a Td Ts=-2.1 - Td=-1.1 2011-09-30 12:03:00
1 1979-08-17 18:00:00 Ts debe ser mayor o igual a Td Ts=-2.6 - Td=-1.5 2011-09-30 12:03:00
1 1979-08-18 09:00:00 Ts debe ser mayor o igual a Td Ts=-3.4 - Td=-2.8 2011-09-30 12:03:00
1 1979-08-19 12:00:00 Ts debe ser mayor o igual a Td Ts=-3.2 - Td=9.6 2011-09-30 12:03:00
1 1979-08-22 06:00:00 Ts debe ser mayor o igual a Td Ts=-2.2 - Td=-0.6 2011-09-30 12:03:00
1 1979-08-24 09:00:00 Ts debe ser mayor o igual a Td Ts=-2.8 - Td=-2.3 2011-09-30 12:03:00
1 1979-08-25 06:00:00 Ts debe ser mayor o igual a Td Ts=0.0 - Td=4.4 2011-09-30 12:03:00
1 1979-08-26 06:00:00 Ts debe ser mayor o igual a Td Ts=-0.4 - Td=0.3 2011-09-30 12:03:00
1 1979-08-26 09:00:00 Ts debe ser mayor o igual a Td Ts=-0.6 - Td=0.6 2011-09-30 12:03:00
1 1979-08-27 09:00:00 Ts debe ser mayor o igual a Td Ts=0.1 - Td=1.3 2011-09-30 12:03:00
1 1979-08-27 15:00:00 Ts debe ser mayor o igual a Td Ts=1.8 - Td=3.6 2011-09-30 12:03:00
1 1979-08-31 00:00:00 Ts debe ser mayor o igual a Td Ts=3.8 - Td=4.2 2011-09-30 12:03:00
1 1979-09-13 12:00:00 Ts debe ser mayor o igual a Td Ts=-0.6 - Td=-0.1 2011-09-30 12:03:00
1 1979-09-16 12:00:00 Ts debe ser mayor o igual a Td Ts=-2.0 - Td=0.5 2011-09-30 12:04:00
1 1979-09-20 06:00:00 Ts debe ser mayor o igual a Td Ts=-1.4 - Td=-0.9 2011-09-30 12:04:00
1 1979-10-13 03:00:00 Ts debe ser mayor o igual a Td Ts=1.0 - Td=1.5 2011-09-30 12:04:00
1 1979-10-23 21:00:00 Ts debe ser mayor o igual a Td Ts=6.2 - Td=6.6 2011-09-30 12:04:00
1 1979-10-30 12:00:00 Ts debe ser mayor o igual a Td Ts=-1.8 - Td=4.1 2011-09-30 12:04:00
1 1979-11-16 06:00:00 Ts debe ser mayor o igual a Td Ts=4.2 - Td=26.2 2011-09-30 12:04:00
1 1979-11-17 18:00:00 Ts debe ser mayor o igual a Td Ts=1.2 - Td=13.3 2011-09-30 12:04:00
1 1979-11-19 00:00:00 Ts debe ser mayor o igual a Td Ts=1.0 - Td=12.6 2011-09-30 12:04:00
1 1979-11-25 15:00:00 Ts debe ser mayor o igual a Td Ts=1.0 - Td=12.7 2011-09-30 12:04:00
1 1979-12-03 15:00:00 Ts debe ser mayor o igual a Td Ts=6.2 - Td=9.6 2011-09-30 12:04:00
1 1979-12-16 12:00:00 Ts debe ser mayor o igual a Td Ts=6.4 - Td=11.1 2011-09-30 12:04:00
1 1979-12-22 15:00:00 Ts debe ser mayor o igual a Td Ts=11.0 - Td=15.5 2011-09-30 12:04:00
1 1979-12-24 03:00:00 Ts debe ser mayor o igual a Td Ts=1.2 - Td=13.0 2011-09-30 12:04:00
1 1979-12-24 06:00:00 Ts debe ser mayor o igual a Td Ts=1.6 - Td=8.5 2011-09-30 12:04:00
1 1995-08-01 21:00:00 Ts debe ser mayor o igual a Td Ts=-1.8 - Td=-0.3 2011-09-30 12:34:00
1 1995-08-02 15:00:00 Ts debe ser mayor o igual a Td Ts=-5.0 - Td=18.0 2011-09-30 12:34:00
1 1995-08-07 15:00:00 Ts debe ser mayor o igual a Td Ts=3.4 - Td=8.6 2011-09-30 12:34:00
1 1995-08-08 21:00:00 Ts debe ser mayor o igual a Td Ts=1.8 - Td=14.7 2011-09-30 12:34:00
1 1995-08-16 18:00:00 Ts debe ser mayor o igual a Td Ts=3.7 - Td=3.9 2011-09-30 12:34:00
1 1995-09-04 21:00:00 Ts debe ser mayor o igual a Td Ts=0.0 - Td=3.6 2011-09-30 12:34:00
1 1995-09-08 18:00:00 Ts debe ser mayor o igual a Td Ts=0.4 - Td=5.9 2011-09-30 12:34:00
1 1995-09-15 15:00:00 Ts debe ser mayor o igual a Td Ts=5.0 - Td=17.5 2011-09-30 12:34:00
1 1995-10-16 21:00:00 Ts debe ser mayor o igual a Td Ts=5.4 - Td=10.2 2011-09-30 12:34:00
1 1995-10-24 15:00:00 Ts debe ser mayor o igual a Td Ts=3.4 - Td=19.7 2011-09-30 12:34:00
1 1995-10-25 18:00:00 Ts debe ser mayor o igual a Td Ts=2.8 - Td=27.9 2011-09-30 12:34:00
1 1995-11-03 21:00:00 Ts debe ser mayor o igual a Td Ts=8.8 - Td=9.2 2011-09-30 12:34:00
1 1995-11-07 15:00:00 Ts debe ser mayor o igual a Td Ts=-0.4 - Td=0.6 2011-09-30 12:34:00
1 1995-12-29 21:00:00 Ts debe ser mayor o igual a Td Ts=0.4 - Td=14.1 2011-09-30 12:34:00
1 2006-01-10 12:00:00 Ts debe ser mayor o igual a Td Ts=5.6 - Td=7.7 2011-09-30 12:43:00
1 2006-02-02 12:00:00 Ts debe ser mayor o igual a Td Ts=1.4 - Td=8.5 2011-09-30 12:43:00
1 2006-07-11 21:00:00 Ts debe ser mayor o igual a Td Ts=0.4 - Td=11.7 2011-09-30 12:43:00
1 2006-07-12 21:00:00 Ts debe ser mayor o igual a Td Ts=0.0 - Td=1.0 2011-09-30 12:43:00
1 2006-09-01 15:00:00 Ts debe ser mayor o igual a Td Ts=4.8 - Td=16.6 2011-09-30 12:44:00
1 2006-09-11 18:00:00 Ts debe ser mayor o igual a Td Ts=3.4 - Td=10.1 2011-09-30 12:44:00
1 2006-09-15 15:00:00 Ts debe ser mayor o igual a Td Ts=2.8 - Td=11.5 2011-09-30 12:44:00
1 2006-09-15 18:00:00 Ts debe ser mayor o igual a Td Ts=5.0 - Td=9.2 2011-09-30 12:44:00
1 2016-12-24 18:00:00 Ts debe ser mayor o igual a Td Ts=3.3 - Td=3.4 2017-05-05 14:32:00
1 2019-03-25 00:00:00 Ts debe ser mayor o igual a Td Ts=1.5 - Td=3.6 2019-03-25 12:31:00
1 2019-03-25 06:00:00 Ts debe ser mayor o igual a Td Ts=2.0 - Td=3.0 2019-03-25 12:31:00
1 2009-01-02 12:00:00 rrr = 6.7 y WW = 2 w1=2 w2=2 6.7 2016-09-13 18:18:00
1 2009-01-02 18:00:00 rrr = 0.5 y WW = 2 w1=2 w2=2 0.5 2016-09-13 18:31:00
1 2009-01-11 12:00:00 rrr = 0.5 y WW = 2 w1=2 w2=2 0.5 2016-09-13 19:54:00
1 2009-02-15 00:00:00 rrr = 1.3 y WW = 2 w1=2 w2=2 1.3 2016-09-15 15:33:00
1 2009-02-16 12:00:00 rrr = 6.0 y WW = 2 w1=2 w2=2 6.0 2016-09-15 16:54:00
1 2009-11-22 18:00:00 rrr = 0.1 y WW = 2 w1=2 w2=2 0.1 2016-10-03 13:14:00
1 2010-01-24 12:00:00 rrr = 2.5 y WW = 2 w1=2 w2=2 2.5 2016-09-02 13:54:00
1 2010-01-24 18:00:00 rrr = 0.3 y WW = 2 w1=2 w2=2 0.3 2016-09-02 13:57:00
1 2010-02-07 00:00:00 rrr = 0.4 y WW = 2 w1=2 w2=2 0.4 2016-09-02 15:41:00
1 2010-02-07 12:00:00 rrr = 7.4 y WW = 2 w1=2 w2=2 7.4 2016-09-02 15:45:00
1 2010-02-07 18:00:00 rrr = 2.4 y WW = 2 w1=2 w2=2 2.4 2016-09-02 15:56:00
1 2010-02-22 12:00:00 rrr = s/p y WW = 21 w1=6 w2=6 0.0 2016-09-02 18:30:00
1 2010-03-08 12:00:00 rrr = 0.3 y WW = 3 w1=2 w2=2 0.3 2011-09-30 17:20:00
1 2010-03-15 12:00:00 rrr = s/p y WW = 2 w1=8 w2=2 0.0 2016-09-05 16:46:00
1 2010-03-25 12:00:00 rrr = s/p y WW = 2 w1=8 w2=2 0.0 2016-09-05 19:26:00
1 2011-11-30 12:00:00 rrr = 3.8 y WW = 2 w1=0 w2=0 3.8 2011-11-30 12:33:00
1 2011-12-04 18:00:00 rrr = s/p y WW = 2 w1=8 w2=2 0.0 2016-08-12 18:15:00
1 2011-12-12 12:00:00 rrr = s/p y WW = 2 w1=8 w2=2 0.0 2016-08-12 20:22:00
1 2011-12-19 12:00:00 rrr = s/p y WW = 2 w1=8 w2=1 0.0 2011-12-19 12:01:00
1 2011-12-21 12:00:00 rrr = 15.2 y WW = 3 w1=0 w2=0 15.2 2016-08-16 14:27:00
1 2011-12-28 12:00:00 rrr = 1.1 y WW = 1 w1=0 w2=0 1.1 2011-12-28 12:48:00
1 2012-01-03 12:00:00 rrr = 0.1 y WW = 1 w1=0 w2=0 0.1 2012-01-03 11:59:00
1 2012-01-04 12:00:00 rrr = 0.5 y WW = 1 w1=0 w2=0 0.5 2016-08-16 19:29:00
1 2012-01-06 12:00:00 rrr = s/p y WW = 2 w1=8 w2=2 0.0 2016-08-16 19:49:00
1 2012-01-10 12:00:00 rrr = 2.4 y WW = 2 w1=2 w2=2 2.4 2016-08-16 19:52:00
1 2012-01-30 18:00:00 rrr = trazas y WW = 2 w1=2 w2=2 0.0 2012-01-30 18:49:00
1 2012-02-06 12:00:00 rrr = s/p y WW = 60 w1=6 w2=2 0.0 2016-08-18 18:28:00
1 2012-02-14 00:00:00 rrr = 0.7 y WW = 2 w1=0 w2=0 0.7 2016-08-18 19:56:00
1 2012-02-18 00:00:00 rrr = trazas y WW = 2 w1=2 w2=2 0.0 2016-08-18 20:15:00
1 2012-02-27 12:00:00 rrr = 1.8 y WW = 3 w1=2 w2=2 1.8 2016-08-19 14:23:00
1 2012-03-06 00:00:00 rrr = 0.6 y WW = 2 w1=2 w2=2 0.6 2016-08-19 17:05:00
1 2012-03-08 12:00:00 rrr = 0.1 y WW = 1 w1=0 w2=0 0.1 2012-03-08 11:56:00
1 2012-03-09 12:00:00 rrr = 0.2 y WW = 10 w1=2 w2=2 0.2 2016-08-19 17:33:00
1 2012-03-09 18:00:00 rrr = 0.1 y WW = 1 w1=4 w2=2 0.1 2016-08-19 17:35:00
1 2012-03-17 00:00:00 rrr = 2.3 y WW = 2 w1=2 w2=2 2.3 2016-08-19 18:05:00
1 2012-03-24 12:00:00 rrr = 3.0 y WW = 1 w1=2 w2=2 3.0 2012-03-24 11:57:00
1 2012-03-29 12:00:00 rrr = 0.7 y WW = 1 w1=1 w2=1 0.7 2016-08-19 19:33:00
1 2012-04-03 12:00:00 rrr = 0.8 y WW = 1 w1=0 w2=0 0.8 2012-04-03 11:51:00
1 2012-04-05 00:00:00 rrr = 0.1 y WW = 1 w1=2 w2=2 0.1 2016-08-22 15:19:00
1 2012-04-22 18:00:00 rrr = s/p y WW = 21 w1=2 w2=2 0.0 2016-08-22 19:26:00
1 2012-04-24 18:00:00 rrr = trazas y WW = 2 w1=2 w2=2 0.0 2012-04-24 17:48:00
1 2012-05-04 12:00:00 rrr = 0.5 y WW = 2 w1=2 w2=2 0.5 2016-08-23 14:49:00
1 2012-05-07 12:00:00 rrr = 0.1 y WW = 2 w1=2 w2=2 0.1 2012-05-07 13:02:00
1 2012-05-10 00:00:00 rrr = 0.4 y WW = 2 w1=2 w2=2 0.4 2016-08-23 16:18:00
1 2012-05-11 00:00:00 rrr = 0.1 y WW = 2 w1=2 w2=2 0.1 2016-08-23 16:23:00
1 2012-05-12 18:00:00 rrr = 1.6 y WW = 2 w1=2 w2=2 1.6 2016-08-23 16:40:00
1 2012-05-21 18:00:00 rrr = 0.2 y WW = 2 w1=2 w2=2 0.2 2016-08-23 17:28:00
1 2012-05-22 00:00:00 rrr = 1.3 y WW = 2 w1=2 w2=2 1.3 2016-08-23 17:29:00
1 2012-05-24 12:00:00 rrr = 0.1 y WW = 2 w1=2 w2=2 0.1 2016-08-23 18:17:00
1 2012-05-25 00:00:00 rrr = 0.4 y WW = 2 w1=2 w2=2 0.4 2016-08-23 18:23:00
1 2012-05-30 00:00:00 rrr = 0.2 y WW = 2 w1=2 w2=2 0.2 2012-05-30 12:57:00
1 2012-06-01 00:00:00 rrr = 0.1 y WW = 2 w1=2 w2=2 0.1 2016-08-23 19:43:00
1 2012-06-08 00:00:00 rrr = trazas y WW = 2 w1=2 w2=2 0.0 2012-06-08 12:54:00
1 2012-06-08 12:00:00 rrr = 0.8 y WW = 2 w1=2 w2=2 0.8 2012-06-08 12:57:00
1 2012-06-09 12:00:00 rrr = 2.1 y WW = 2 w1=2 w2=2 2.1 2012-06-09 14:48:00
1 2012-06-20 18:00:00 rrr = 0.2 y WW = 1 w1=2 w2=2 0.2 2016-08-24 18:33:00
1 2012-06-21 18:00:00 rrr = trazas y WW = 2 w1=2 w2=2 0.0 2012-06-21 17:46:00
1 2012-06-27 00:00:00 rrr = trazas y WW = 2 w1=2 w2=2 0.0 2016-08-24 19:52:00
1 2012-07-24 00:00:00 rrr = 1.1 y WW = 2 w1=2 w2=2 1.1 2016-08-25 19:29:00
1 2012-07-25 00:00:00 rrr = 1.7 y WW = 2 w1=1 w2=1 1.7 2016-08-25 19:36:00
1 2012-07-25 12:00:00 rrr = s/p y WW = 91 w1=7 w2=7 0.0 2016-08-25 19:36:00
1 2012-07-28 12:00:00 rrr = s/p y WW = 83 w1=7 w2=2 0.0 2012-07-28 11:58:00
1 2012-07-31 12:00:00 rrr = 1.2 y WW = 2 w1=0 w2=0 1.2 2012-07-31 12:55:00
1 2012-08-19 12:00:00 rrr = 0.5 y WW = 2 w1=2 w2=2 0.5 2016-08-26 18:25:00
1 2012-08-31 12:00:00 rrr = 0.4 y WW = 2 w1=0 w2=0 0.4 2016-08-29 12:59:00
1 2012-09-04 00:00:00 rrr = 0.1 y WW = 2 w1=2 w2=2 0.1 2016-08-29 13:19:00
1 2012-09-07 18:00:00 rrr = 0.1 y WW = 3 w1=2 w2=2 0.1 2012-09-07 17:49:00
1 2012-09-15 00:00:00 rrr = 0.2 y WW = 2 w1=2 w2=2 0.2 2016-08-29 16:17:00
1 2012-09-20 18:00:00 rrr = trazas y WW = 2 w1=2 w2=2 0.0 2012-09-20 17:55:00
1 2012-09-22 00:00:00 rrr = trazas y WW = 3 w1=2 w2=2 0.0 2012-09-22 13:43:00
1 2012-09-22 18:00:00 rrr = 0.1 y WW = 2 w1=2 w2=1 0.1 2012-09-22 17:56:00
1 2012-10-04 12:00:00 rrr = 0.5 y WW = 2 w1=0 w2=0 0.5 2012-10-04 11:54:00
1 2012-10-06 18:00:00 rrr = 0.8 y WW = 3 w1=2 w2=2 0.8 2016-08-29 18:53:00
1 2012-10-20 18:00:00 rrr = s/p y WW = 2 w1=6 w2=2 0.0 2016-08-29 19:30:00
1 2012-10-24 18:00:00 rrr = 0.1 y WW = 2 w1=2 w2=1 0.1 2012-10-24 17:58:00
1 2012-10-26 12:00:00 rrr = 0.2 y WW = 15 w1=2 w2=2 0.2 2016-08-29 19:43:00
1 2012-10-29 12:00:00 rrr = 3.3 y WW = 1 w1=0 w2=0 3.3 2016-08-29 20:12:00
1 2012-11-05 12:00:00 rrr = 0.1 y WW = 2 w1=2 w2=2 0.1 2016-08-30 13:23:00
1 2012-11-07 12:00:00 rrr = 0.1 y WW = 2 w1=2 w2=2 0.1 2012-11-07 11:57:00
1 2012-11-09 12:00:00 rrr = 1.0 y WW = 15 w1=2 w2=2 1.0 2016-08-30 14:33:00
1 2012-11-21 12:00:00 rrr = 8.4 y WW = 2 w1=2 w2=2 8.4 2012-11-21 11:54:00
1 2012-11-24 12:00:00 rrr = s/p y WW = 2 w1=8 w2=2 0.0 2016-08-31 15:54:00
1 2012-12-03 12:00:00 rrr = 0.1 y WW = 2 w1=2 w2=2 0.1 2012-12-03 11:57:00
1 2012-12-04 12:00:00 rrr = trazas y WW = 2 w1=2 w2=2 0.0 2012-12-04 11:52:00
1 2012-12-10 12:00:00 rrr = 0.1 y WW = 2 w1=2 w2=2 0.1 2012-12-10 11:58:00
1 2012-12-11 12:00:00 rrr = 1.1 y WW = 2 w1=2 w2=2 1.1 2012-12-11 11:57:00
1 2012-12-14 12:00:00 rrr = s/p y WW = 2 w1=8 w2=2 0.0 2016-08-31 17:15:00
1 2012-12-17 12:00:00 rrr = s/p y WW = 2 w1=8 w2=2 0.0 2016-08-31 17:45:00
1 2012-12-19 12:00:00 rrr = 0.7 y WW = 2 w1=2 w2=2 0.7 2012-12-19 11:55:00
1 2012-12-20 06:00:00 rrr = s/p y WW = 1 w1=5 w2=2 0.0 2016-08-31 17:53:00
1 2012-12-20 12:00:00 rrr = 0.2 y WW = 2 w1=2 w2=2 0.2 2012-12-20 11:54:00
1 2012-12-25 18:00:00 rrr = 0.7 y WW = 3 w1=2 w2=2 0.7 2016-08-31 18:34:00
1 2012-12-26 18:00:00 rrr = 0.3 y WW = 1 w1=2 w2=2 0.3 2016-08-31 18:36:00
1 2012-12-28 12:00:00 rrr = 0.3 y WW = 2 w1=2 w2=2 0.3 2012-12-28 11:49:00
1 2012-12-31 12:00:00 rrr = 0.3 y WW = 2 w1=2 w2=2 0.3 2016-08-31 19:12:00
1 2013-01-04 12:00:00 rrr = 1.1 y WW = 2 w1=2 w2=2 1.1 2013-01-04 11:51:00
1 2013-01-07 12:00:00 rrr = 18.8 y WW = 2 w1=2 w2=2 18.8 2013-01-07 11:52:00
1 2013-01-08 12:00:00 rrr = 4.7 y WW = 2 w1=2 w2=2 4.7 2013-01-08 11:51:00
1 2013-01-08 18:00:00 rrr = 0.1 y WW = 2 w1=2 w2=2 0.1 2013-01-08 17:57:00
1 2013-01-10 12:00:00 rrr = 1.4 y WW = 2 w1=2 w2=2 1.4 2013-01-10 11:55:00
1 2013-01-14 12:00:00 rrr = 0.1 y WW = 2 w1=2 w2=2 0.1 2013-01-14 11:58:00
1 2013-01-16 12:00:00 rrr = 0.1 y WW = 2 w1=2 w2=2 0.1 2013-01-16 11:54:00
1 2013-01-23 12:00:00 rrr = 0.5 y WW = 2 w1=2 w2=2 0.5 2013-01-23 11:59:00
1 2013-01-23 18:00:00 rrr = 1.9 y WW = 2 w1=2 w2=2 1.9 2013-01-23 17:55:00
1 2013-01-24 12:00:00 rrr = 7.3 y WW = 2 w1=2 w2=2 7.3 2013-01-24 11:54:00
1 2013-01-28 12:00:00 rrr = 2.8 y WW = 2 w1=2 w2=1 2.8 2013-01-28 11:58:00
1 2013-01-30 12:00:00 rrr = 0.6 y WW = 2 w1=2 w2=2 0.6 2013-01-30 11:54:00
1 2013-01-31 12:00:00 rrr = 0.9 y WW = 2 w1=2 w2=2 0.9 2013-01-31 12:01:00
1 2013-02-01 12:00:00 rrr = 0.5 y WW = 3 w1=2 w2=2 0.5 2013-02-01 11:56:00
1 2013-02-04 12:00:00 rrr = 8.9 y WW = 2 w1=2 w2=1 8.9 2013-02-04 12:02:00
1 2013-02-05 12:00:00 rrr = 0.4 y WW = 2 w1=2 w2=2 0.4 2013-02-05 11:51:00
1 2013-02-05 18:00:00 rrr = 0.1 y WW = 2 w1=2 w2=2 0.1 2013-02-05 17:57:00
1 2013-02-07 12:00:00 rrr = 0.8 y WW = 3 w1=2 w2=2 0.8 2013-02-07 11:53:00
1 2013-02-08 18:00:00 rrr = trazas y WW = 3 w1=2 w2=2 0.0 2013-02-08 17:55:00
1 2013-02-12 18:00:00 rrr = 8.8 y WW = 2 w1=2 w2=2 8.8 2013-02-12 17:55:00
1 2013-02-13 12:00:00 rrr = 0.2 y WW = 2 w1=2 w2=2 0.2 2013-02-13 11:50:00
1 2013-02-14 12:00:00 rrr = 0.1 y WW = 2 w1=2 w2=2 0.1 2013-02-14 11:51:00
1 2013-02-14 18:00:00 rrr = 0.1 y WW = 2 w1=3 w2=2 0.1 2013-02-14 17:54:00
1 2013-02-15 12:00:00 rrr = 2.3 y WW = 2 w1=2 w2=2 2.3 2013-02-15 11:50:00
1 2013-02-18 12:00:00 rrr = 10.1 y WW = 2 w1=2 w2=2 10.1 2013-02-18 12:02:00
1 2013-02-20 12:00:00 rrr = 0.3 y WW = 2 w1=2 w2=2 0.3 2013-02-20 11:51:00
1 2013-02-22 12:00:00 rrr = 0.4 y WW = 2 w1=2 w2=2 0.4 2013-02-22 11:54:00
1 2013-02-23 18:00:00 rrr = 0.1 y WW = 2 w1=2 w2=2 0.1 2013-02-23 17:58:00
1 2013-02-26 12:00:00 rrr = 0.4 y WW = 11 w1=2 w2=2 0.4 2013-02-26 11:52:00
1 2013-02-26 18:00:00 rrr = s/p y WW = 25 w1=2 w2=2 0.0 2013-02-26 17:56:00
1 2013-03-06 12:00:00 rrr = 3.0 y WW = 2 w1=2 w2=2 3.0 2013-03-06 11:53:00
1 2013-03-08 12:00:00 rrr = 0.3 y WW = 2 w1=2 w2=2 0.3 2013-03-08 11:49:00
1 2013-03-11 12:00:00 rrr = 5.2 y WW = 2 w1=2 w2=2 5.2 2013-03-11 11:54:00
1 2013-03-11 18:00:00 rrr = 0.3 y WW = 3 w1=2 w2=2 0.3 2013-03-11 17:51:00
1 2013-03-12 12:00:00 rrr = 0.8 y WW = 2 w1=2 w2=2 0.8 2013-03-12 11:53:00
1 2013-03-12 18:00:00 rrr = trazas y WW = 2 w1=2 w2=2 0.0 2013-03-12 17:51:00
1 2013-03-18 12:00:00 rrr = trazas y WW = 2 w1=2 w2=2 0.0 2013-03-18 11:58:00
1 2013-03-21 12:00:00 rrr = 1.5 y WW = 2 w1=2 w2=2 1.5 2013-03-21 11:51:00
1 2013-03-21 18:00:00 rrr = 0.1 y WW = 1 w1=2 w2=2 0.1 2013-03-21 17:50:00
1 2013-03-22 18:00:00 rrr = 0.1 y WW = 3 w1=2 w2=2 0.1 2013-03-22 17:53:00
1 2013-03-25 18:00:00 rrr = 0.1 y WW = 2 w1=3 w2=2 0.1 2013-03-25 17:51:00
1 2013-03-26 12:00:00 rrr = 6.1 y WW = 2 w1=2 w2=2 6.1 2013-03-26 11:58:00
1 2013-03-26 18:00:00 rrr = 0.1 y WW = 3 w1=2 w2=2 0.1 2013-03-26 17:53:00
1 2013-03-27 18:00:00 rrr = 0.3 y WW = 2 w1=2 w2=2 0.3 2013-03-27 17:57:00
1 2013-03-28 12:00:00 rrr = 0.3 y WW = 2 w1=2 w2=2 0.3 2013-03-28 11:54:00
1 2013-04-01 12:00:00 rrr = 1.0 y WW = 2 w1=2 w2=2 1.0 2013-04-01 11:55:00
1 2013-04-04 12:00:00 rrr = 2.1 y WW = 2 w1=2 w2=2 2.1 2013-04-04 11:54:00
1 2013-04-05 18:00:00 rrr = 0.4 y WW = 1 w1=1 w2=0 0.4 2013-04-05 17:52:00
1 2013-04-08 12:00:00 rrr = 3.2 y WW = 2 w1=2 w2=2 3.2 2013-04-08 11:56:00
1 2013-04-12 12:00:00 rrr = 0.2 y WW = 2 w1=2 w2=2 0.2 2013-04-12 11:53:00
1 2013-04-16 12:00:00 rrr = 6.0 y WW = 2 w1=2 w2=2 6.0 2013-04-16 11:56:00
1 2013-04-19 12:00:00 rrr = 0.1 y WW = 2 w1=2 w2=2 0.1 2013-04-19 11:55:00
1 2013-04-22 12:00:00 rrr = 0.7 y WW = 2 w1=2 w2=2 0.7 2013-04-22 11:58:00
1 2013-05-07 18:00:00 rrr = trazas y WW = 2 w1=2 w2=1 0.0 2013-05-07 17:53:00
1 2013-06-01 18:00:00 rrr = 0.3 y WW = 2 w1=2 w2=2 0.3 2013-06-01 17:56:00
1 2013-06-03 18:00:00 rrr = 1.2 y WW = 3 w1=2 w2=2 1.2 2013-06-03 17:56:00
1 2013-07-03 18:00:00 rrr = 0.1 y WW = 28 w1=4 w2=2 0.1 2013-07-03 17:53:00
1 2013-07-25 18:00:00 rrr = 0.7 y WW = 3 w1=1 w2=0 0.7 2013-07-25 17:57:00
1 2013-07-27 12:00:00 rrr = 0.2 y WW = 3 w1=2 w2=2 0.2 2013-07-27 12:00:00
1 2013-08-01 18:00:00 rrr = 0.1 y WW = 2 w1=2 w2=2 0.1 2013-08-01 17:54:00
1 2013-09-09 12:00:00 rrr = 0.5 y WW = 2 w1=2 w2=2 0.5 2013-09-09 11:57:00
1 2013-09-10 12:00:00 rrr = 0.1 y WW = 3 w1=2 w2=2 0.1 2013-09-10 11:52:00
1 2013-09-11 12:00:00 rrr = 0.3 y WW = 0 w1=0 w2=0 0.3 2013-09-11 11:54:00
1 2013-09-21 18:00:00 rrr = 0.7 y WW = 16 w1=2 w2=2 0.7 2013-09-21 17:50:00
1 2013-09-23 12:00:00 rrr = 3.2 y WW = 2 w1=0 w2=0 3.2 2013-09-23 16:34:00
1 2013-09-24 12:00:00 rrr = 0.1 y WW = 3 w1=2 w2=2 0.1 2013-09-24 11:54:00
1 2013-09-25 18:00:00 rrr = s/p y WW = 69 w1=7 w2=2 0.0 2013-09-25 17:57:00
1 2013-10-02 12:00:00 rrr = 0.2 y WW = 1 w1=2 w2=2 0.2 2013-10-02 11:51:00
1 2013-10-07 12:00:00 rrr = 0.9 y WW = 2 w1=2 w2=2 0.9 2013-10-07 11:52:00
1 2013-10-08 12:00:00 rrr = 0.1 y WW = 3 w1=2 w2=2 0.1 2013-10-08 11:53:00
1 2013-10-08 18:00:00 rrr = 0.1 y WW = 2 w1=2 w2=2 0.1 2013-10-08 17:52:00
1 2013-10-10 12:00:00 rrr = 1.1 y WW = 3 w1=2 w2=2 1.1 2013-10-10 11:52:00
1 2013-10-14 18:00:00 rrr = 0.1 y WW = 3 w1=2 w2=2 0.1 2013-10-14 17:52:00
1 2013-10-15 12:00:00 rrr = 0.1 y WW = 2 w1=1 w2=0 0.1 2013-10-15 11:54:00
1 2013-10-16 12:00:00 rrr = 0.4 y WW = 2 w1=1 w2=0 0.4 2013-10-16 11:57:00
1 2013-10-17 12:00:00 rrr = 0.1 y WW = 2 w1=2 w2=2 0.1 2013-10-17 11:59:00
1 2013-10-19 12:00:00 rrr = 0.3 y WW = 2 w1=1 w2=0 0.3 2013-10-19 11:56:00
1 2013-10-22 18:00:00 rrr = 0.7 y WW = 3 w1=2 w2=2 0.7 2013-10-22 17:54:00
1 2013-10-28 12:00:00 rrr = 2.8 y WW = 2 w1=1 w2=0 2.8 2013-10-28 11:58:00
1 2013-10-28 18:00:00 rrr = trazas y WW = 1 w1=0 w2=0 0.0 2013-10-28 17:55:00
1 2013-11-04 12:00:00 rrr = 2.0 y WW = 3 w1=2 w2=2 2.0 2013-11-04 11:55:00
1 2013-11-05 12:00:00 rrr = 0.1 y WW = 1 w1=2 w2=2 0.1 2013-11-05 11:52:00
1 2013-11-07 12:00:00 rrr = 3.1 y WW = 3 w1=0 w2=0 3.1 2013-11-07 11:54:00
1 2013-11-09 12:00:00 rrr = 0.1 y WW = 3 w1=2 w2=2 0.1 2013-11-09 11:56:00
1 2013-11-11 18:00:00 rrr = 0.8 y WW = 1 w1=2 w2=2 0.8 2013-11-11 17:56:00
1 2013-11-13 12:00:00 rrr = 0.6 y WW = 2 w1=2 w2=2 0.6 2013-11-13 11:47:00
1 2013-11-15 18:00:00 rrr = trazas y WW = 2 w1=2 w2=2 0.0 2013-11-15 17:54:00
1 2013-11-18 12:00:00 rrr = 3.8 y WW = 2 w1=2 w2=2 3.8 2013-11-18 11:54:00
1 2013-11-18 18:00:00 rrr = 0.1 y WW = 1 w1=2 w2=2 0.1 2013-11-18 17:50:00
1 2013-11-19 12:00:00 rrr = 0.2 y WW = 2 w1=2 w2=2 0.2 2013-11-19 11:52:00
1 2013-11-20 18:00:00 rrr = 0.1 y WW = 3 w1=2 w2=0 0.1 2013-11-20 17:55:00
1 2013-11-29 18:00:00 rrr = 0.2 y WW = 2 w1=2 w2=2 0.2 2013-11-29 17:56:00
1 2013-12-02 18:00:00 rrr = 0.1 y WW = 3 w1=2 w2=2 0.1 2013-12-02 17:58:00
1 2013-12-09 18:00:00 rrr = 1.6 y WW = 1 w1=2 w2=2 1.6 2013-12-09 17:53:00
1 2013-12-10 12:00:00 rrr = 1.0 y WW = 1 w1=0 w2=0 1.0 2013-12-10 11:58:00
1 2013-12-10 18:00:00 rrr = 0.8 y WW = 1 w1=2 w2=2 0.8 2013-12-10 17:53:00
1 2013-12-12 12:00:00 rrr = 1.5 y WW = 2 w1=2 w2=2 1.5 2013-12-12 11:52:00
1 2013-12-13 12:00:00 rrr = 1.1 y WW = 2 w1=2 w2=2 1.1 2013-12-13 11:49:00
1 2013-12-16 12:00:00 rrr = 6.4 y WW = 2 w1=2 w2=2 6.4 2013-12-16 12:04:00
1 2013-12-18 18:00:00 rrr = 0.6 y WW = 3 w1=2 w2=2 0.6 2013-12-18 17:51:00
1 2013-12-19 12:00:00 rrr = 0.4 y WW = 2 w1=2 w2=2 0.4 2013-12-19 11:57:00
1 2013-12-24 12:00:00 rrr = 0.9 y WW = 2 w1=2 w2=2 0.9 2013-12-24 11:52:00
1 2013-12-31 12:00:00 rrr = 2.2 y WW = 2 w1=2 w2=2 2.2 2013-12-31 11:55:00
1 2014-01-03 12:00:00 rrr = 0.6 y WW = 2 w1=2 w2=2 0.6 2014-01-03 11:51:00
1 2014-01-06 18:00:00 rrr = 2.6 y WW = 1 w1=2 w2=2 2.6 2014-01-06 17:52:00
1 2014-01-08 12:00:00 rrr = 1.0 y WW = 2 w1=2 w2=2 1.0 2014-01-08 11:55:00
1 2014-01-10 18:00:00 rrr = 0.3 y WW = 2 w1=2 w2=2 0.3 2014-01-10 17:51:00
1 2014-01-13 12:00:00 rrr = 1.5 y WW = 2 w1=2 w2=2 1.5 2014-01-13 11:57:00
1 2014-01-14 12:00:00 rrr = 0.1 y WW = 2 w1=2 w2=2 0.1 2014-01-14 11:49:00
1 2014-01-20 12:00:00 rrr = 1.0 y WW = 2 w1=2 w2=2 1.0 2014-01-20 11:53:00
1 2014-01-22 12:00:00 rrr = 4.3 y WW = 2 w1=2 w2=2 4.3 2014-01-22 11:52:00
1 2014-01-23 18:00:00 rrr = 0.1 y WW = 2 w1=2 w2=2 0.1 2014-01-23 17:55:00
1 2014-01-27 12:00:00 rrr = 3.0 y WW = 2 w1=2 w2=2 3.0 2014-01-27 11:51:00
1 2014-01-28 18:00:00 rrr = 0.1 y WW = 3 w1=2 w2=2 0.1 2014-01-28 17:50:00
1 2014-01-29 12:00:00 rrr = 0.4 y WW = 2 w1=0 w2=0 0.4 2014-01-29 11:51:00
1 2014-01-30 18:00:00 rrr = 1.4 y WW = 3 w1=2 w2=2 1.4 2014-01-30 17:53:00
1 2014-01-31 12:00:00 rrr = 1.2 y WW = 2 w1=2 w2=2 1.2 2014-01-31 11:54:00
1 2014-02-03 12:00:00 rrr = 1.4 y WW = 2 w1=2 w2=2 1.4 2014-02-03 11:52:00
1 2014-02-04 12:00:00 rrr = 0.2 y WW = 2 w1=2 w2=2 0.2 2014-02-04 11:55:00
1 2014-02-05 12:00:00 rrr = 7.1 y WW = 1 w1=2 w2=2 7.1 2014-02-05 11:55:00
1 2014-02-06 12:00:00 rrr = 2.5 y WW = 2 w1=2 w2=2 2.5 2014-02-06 11:53:00
1 2014-02-07 18:00:00 rrr = 0.8 y WW = 2 w1=2 w2=2 0.8 2014-02-07 17:59:00
1 2014-02-11 12:00:00 rrr = 0.2 y WW = 2 w1=2 w2=2 0.2 2014-02-11 11:55:00
1 2014-02-12 12:00:00 rrr = 0.4 y WW = 2 w1=2 w2=2 0.4 2014-02-12 11:54:00
1 2014-02-13 12:00:00 rrr = 1.8 y WW = 2 w1=2 w2=2 1.8 2014-02-13 11:54:00
1 2014-02-14 18:00:00 rrr = trazas y WW = 3 w1=0 w2=0 0.0 2014-02-14 17:56:00
1 2014-02-17 12:00:00 rrr = 1.4 y WW = 2 w1=2 w2=2 1.4 2014-02-17 11:52:00
1 2014-02-20 12:00:00 rrr = trazas y WW = 2 w1=2 w2=2 0.0 2014-02-20 11:58:00
1 2014-02-24 12:00:00 rrr = 2.8 y WW = 0 w1=0 w2=0 2.8 2014-02-25 15:16:00
1 2014-02-25 12:00:00 rrr = 0.1 y WW = 2 w1=2 w2=2 0.1 2014-02-25 13:40:00
1 2014-02-25 18:00:00 rrr = trazas y WW = 2 w1=2 w2=2 0.0 2014-02-25 17:55:00
1 2014-02-27 12:00:00 rrr = 2.6 y WW = 10 w1=2 w2=2 2.6 2014-02-27 11:51:00
1 2014-02-28 18:00:00 rrr = 0.3 y WW = 2 w1=2 w2=2 0.3 2014-02-28 17:54:00
1 2014-03-04 18:00:00 rrr = 0.8 y WW = 3 w1=2 w2=2 0.8 2014-03-04 17:54:00
1 2014-03-06 12:00:00 rrr = 0.8 y WW = 2 w1=0 w2=0 0.8 2014-03-06 11:54:00
1 2014-03-07 12:00:00 rrr = 0.2 y WW = 2 w1=0 w2=0 0.2 2014-03-07 11:54:00
1 2014-03-10 12:00:00 rrr = 1.0 y WW = 2 w1=1 w2=1 1.0 2014-03-10 11:57:00
1 2014-03-11 12:00:00 rrr = 4.7 y WW = 2 w1=0 w2=0 4.7 2014-03-11 11:56:00
1 2014-03-13 12:00:00 rrr = 3.3 y WW = 2 w1=2 w2=2 3.3 2014-03-13 11:55:00
1 2014-03-15 06:00:00 rrr = 0.2 y WW = 3 w1=2 w2=2 0.2 2014-03-15 05:56:00
1 2014-03-17 12:00:00 rrr = s/p y WW = 2 w1=8 w2=2 0.0 2014-03-17 11:57:00
1 2014-03-18 12:00:00 rrr = 1.5 y WW = 3 w1=2 w2=2 1.5 2014-03-18 11:56:00
1 2014-03-25 12:00:00 rrr = 0.1 y WW = 2 w1=2 w2=2 0.1 2014-03-25 11:57:00
1 2014-03-27 18:00:00 rrr = 2.4 y WW = 2 w1=2 w2=2 2.4 2014-03-27 17:57:00
1 2014-03-28 12:00:00 rrr = 1.4 y WW = 2 w1=0 w2=0 1.4 2014-03-28 11:58:00
1 2014-04-01 12:00:00 rrr = 0.1 y WW = 2 w1=0 w2=0 0.1 2014-04-01 11:56:00
1 2014-04-02 12:00:00 rrr = 0.3 y WW = 2 w1=2 w2=2 0.3 2014-04-02 11:54:00
1 2014-04-03 12:00:00 rrr = 0.2 y WW = 2 w1=2 w2=2 0.2 2014-04-03 11:53:00
1 2014-04-10 12:00:00 rrr = 0.1 y WW = 2 w1=2 w2=2 0.1 2014-04-10 11:59:00
1 2014-04-11 12:00:00 rrr = 2.8 y WW = 2 w1=2 w2=1 2.8 2014-04-11 11:55:00
1 2014-04-14 12:00:00 rrr = 12.2 y WW = 2 w1=2 w2=2 12.2 2014-04-14 11:58:00
1 2014-04-16 12:00:00 rrr = 0.4 y WW = 0 w1=0 w2=0 0.4 2014-04-16 11:51:00
1 2014-04-17 12:00:00 rrr = 1.0 y WW = 2 w1=2 w2=2 1.0 2014-04-17 11:56:00
1 2014-04-21 12:00:00 rrr = 2.3 y WW = 2 w1=2 w2=2 2.3 2014-04-21 11:54:00
1 2014-04-25 12:00:00 rrr = 0.1 y WW = 1 w1=2 w2=2 0.1 2014-04-25 11:51:00
1 2014-06-06 18:00:00 rrr = s/p y WW = 83 w1=8 w2=8 0.0 2014-06-06 18:10:00
1 2014-06-07 12:00:00 rrr = 0.1 y WW = 2 w1=2 w2=2 0.1 2014-06-07 11:57:00
1 2014-06-16 18:00:00 rrr = s/p y WW = 15 w1=8 w2=2 0.0 2014-06-16 17:56:00
1 2014-06-26 18:00:00 rrr = 0.1 y WW = 2 w1=2 w2=1 0.1 2014-06-26 17:58:00
1 2014-07-04 12:00:00 rrr = 0.8 y WW = 2 w1=0 w2=0 0.8 2014-07-04 11:53:00
1 2014-07-15 18:00:00 rrr = 0.6 y WW = 3 w1=2 w2=2 0.6 2014-07-15 17:56:00
1 2014-08-06 18:00:00 rrr = s/p y WW = 51 w1=8 w2=2 0.0 2014-08-06 17:55:00
1 2014-08-14 18:00:00 rrr = s/p y WW = 2 w1=8 w2=8 0.0 2014-08-14 17:52:00
1 2014-08-18 18:00:00 rrr = 0.1 y WW = 3 w1=2 w2=2 0.1 2014-08-18 17:54:00
1 2014-09-05 18:00:00 rrr = trazas y WW = 3 w1=2 w2=2 0.0 2014-09-05 17:57:00
1 2014-09-09 12:00:00 rrr = 0.1 y WW = 2 w1=2 w2=2 0.1 2014-09-09 11:52:00
1 2014-09-12 18:00:00 rrr = 0.1 y WW = 2 w1=2 w2=1 0.1 2014-09-12 17:58:00
1 2014-09-15 12:00:00 rrr = 1.0 y WW = 2 w1=2 w2=2 1.0 2014-10-14 19:24:00
1 2014-09-16 12:00:00 rrr = 0.2 y WW = 2 w1=2 w2=1 0.2 2014-09-16 11:48:00
1 2014-09-22 12:00:00 rrr = 15.8 y WW = 2 w1=2 w2=2 15.8 2014-09-22 11:48:00
1 2014-09-25 18:00:00 rrr = 0.1 y WW = 2 w1=2 w2=1 0.1 2014-09-25 17:56:00
1 2014-09-30 12:00:00 rrr = 0.1 y WW = 2 w1=2 w2=2 0.1 2014-09-30 11:56:00
1 2014-10-07 12:00:00 rrr = 3.6 y WW = 1 w1=2 w2=1 3.6 2014-10-07 11:56:00
1 2014-10-08 12:00:00 rrr = 0.2 y WW = 3 w1=2 w2=2 0.2 2014-10-08 11:49:00
1 2014-10-14 12:00:00 rrr = 2.2 y WW = 3 w1=2 w2=2 2.2 2014-10-14 11:58:00
1 2014-10-17 12:00:00 rrr = 0.1 y WW = 2 w1=2 w2=2 0.1 2014-10-17 11:55:00
1 2014-10-20 12:00:00 rrr = 0.2 y WW = 3 w1=2 w2=2 0.2 2014-10-20 11:53:00
1 2014-10-21 12:00:00 rrr = 0.6 y WW = 2 w1=2 w2=2 0.6 2014-10-21 11:56:00
1 2014-10-22 12:00:00 rrr = 4.9 y WW = 2 w1=2 w2=2 4.9 2014-10-22 11:51:00
1 2014-10-28 12:00:00 rrr = 0.1 y WW = 2 w1=2 w2=2 0.1 2014-10-28 11:55:00
1 2014-10-28 18:00:00 rrr = s/p y WW = 80 w1=8 w2=2 0.0 2014-10-28 17:54:00
1 2014-11-04 18:00:00 rrr = s/p y WW = 2 w1=8 w2=2 0.0 2014-11-04 17:58:00
1 2014-11-06 18:00:00 rrr = s/p y WW = 3 w1=8 w2=2 0.0 2014-11-06 17:56:00
1 2014-11-10 12:00:00 rrr = 5.3 y WW = 2 w1=2 w2=1 5.3 2014-11-10 11:53:00
1 2014-11-12 18:00:00 rrr = s/p y WW = 1 w1=5 w2=5 0.0 2014-11-12 17:59:00
1 2014-11-19 12:00:00 rrr = 0.2 y WW = 2 w1=1 w2=0 0.2 2014-11-19 11:55:00
1 2014-11-24 12:00:00 rrr = 0.2 y WW = 2 w1=2 w2=2 0.2 2014-11-24 11:51:00
1 2014-11-25 12:00:00 rrr = 0.2 y WW = 2 w1=2 w2=1 0.2 2014-11-25 11:52:00
1 2014-11-25 18:00:00 rrr = trazas y WW = 2 w1=2 w2=2 0.0 2014-11-25 17:53:00
1 2014-11-26 12:00:00 rrr = 0.5 y WW = 2 w1=2 w2=1 0.5 2014-11-26 11:53:00
1 2014-12-01 12:00:00 rrr = 0.8 y WW = 2 w1=2 w2=2 0.8 2014-12-01 11:53:00
1 2014-12-05 12:00:00 rrr = 0.6 y WW = 2 w1=2 w2=1 0.6 2014-12-05 11:50:00
1 2014-12-09 12:00:00 rrr = 0.2 y WW = 3 w1=2 w2=2 0.2 2014-12-09 11:57:00
1 2014-12-10 00:00:00 rrr = 2.6 y WW = 3 w1=1 w2=0 2.6 2014-12-09 23:58:00
1 2014-12-11 12:00:00 rrr = s/p y WW = 3 w1=8 w2=2 0.0 2014-12-11 11:54:00
1 2014-12-16 12:00:00 rrr = 3.5 y WW = 2 w1=2 w2=1 3.5 2014-12-16 11:55:00
1 2014-12-19 12:00:00 rrr = s/p y WW = 80 w1=5 w2=2 0.0 2014-12-19 11:56:00
1 2014-12-24 12:00:00 rrr = 0.2 y WW = 3 w1=2 w2=2 0.2 2014-12-24 11:54:00
1 2015-01-02 12:00:00 rrr = 0.3 y WW = 1 w1=2 w2=2 0.3 2015-01-02 11:58:00
1 2015-01-03 12:00:00 rrr = 0.1 y WW = 3 w1=0 w2=0 0.1 2015-01-03 11:53:00
1 2015-01-05 12:00:00 rrr = 0.6 y WW = 3 w1=2 w2=2 0.6 2015-01-05 11:52:00
1 2015-01-08 12:00:00 rrr = 0.6 y WW = 3 w1=2 w2=2 0.6 2015-01-08 11:59:00
1 2015-01-14 12:00:00 rrr = 0.5 y WW = 2 w1=2 w2=2 0.5 2015-01-14 11:55:00
1 2015-01-16 12:00:00 rrr = 4.5 y WW = 15 w1=2 w2=2 4.5 2015-01-16 11:53:00
1 2015-01-16 18:00:00 rrr = s/p y WW = 2 w1=8 w2=2 0.0 2015-01-16 17:52:00
1 2015-01-19 12:00:00 rrr = trazas y WW = 2 w1=2 w2=2 0.0 2015-01-19 11:50:00
1 2015-01-23 00:00:00 rrr = 0.3 y WW = 2 w1=2 w2=1 0.3 2015-01-22 23:58:00
1 2015-01-25 00:00:00 rrr = 0.6 y WW = 1 w1=2 w2=1 0.6 2015-01-24 23:54:00
1 2015-02-06 12:00:00 rrr = 0.5 y WW = 2 w1=1 w2=0 0.5 2015-02-06 11:47:00
1 2015-02-09 12:00:00 rrr = 0.1 y WW = 1 w1=2 w2=2 0.1 2015-02-09 12:02:00
1 2015-02-10 12:00:00 rrr = 0.4 y WW = 2 w1=2 w2=2 0.4 2015-02-10 11:53:00
1 2015-02-11 12:00:00 rrr = 1.5 y WW = 3 w1=2 w2=2 1.5 2015-02-11 12:00:00
1 2015-02-12 18:00:00 rrr = s/p y WW = 2 w1=8 w2=2 0.0 2015-02-12 17:57:00
1 2015-02-16 18:00:00 rrr = trazas y WW = 3 w1=2 w2=2 0.0 2015-02-16 17:54:00
1 2015-02-18 12:00:00 rrr = 0.6 y WW = 2 w1=2 w2=2 0.6 2015-02-18 11:52:00
1 2015-02-19 12:00:00 rrr = 0.5 y WW = 3 w1=2 w2=2 0.5 2015-02-19 11:58:00
1 2015-02-20 12:00:00 rrr = 0.2 y WW = 2 w1=2 w2=2 0.2 2015-02-20 11:54:00
1 2015-02-22 12:00:00 rrr = 0.2 y WW = 2 w1=2 w2=2 0.2 2015-02-22 11:56:00
1 2015-02-23 12:00:00 rrr = 1.9 y WW = 3 w1=2 w2=2 1.9 2015-02-23 11:59:00
1 2015-02-24 12:00:00 rrr = trazas y WW = 2 w1=2 w2=1 0.0 2015-02-24 11:54:00
1 2015-02-24 18:00:00 rrr = 0.3 y WW = 3 w1=2 w2=2 0.3 2015-02-24 17:55:00
1 2015-02-25 00:00:00 rrr = 0.3 y WW = 1 w1=2 w2=2 0.3 2015-02-24 23:58:00
1 2015-02-25 12:00:00 rrr = 0.1 y WW = 3 w1=0 w2=0 0.1 2015-02-25 12:00:00
1 2015-03-05 12:00:00 rrr = 0.2 y WW = 0 w1=0 w2=0 0.2 2015-03-05 11:56:00
1 2015-03-07 18:00:00 rrr = 20.0 y WW = 2 w1=0 w2=0 20.0 2015-03-07 17:54:00
1 2015-03-09 18:00:00 rrr = 0.1 y WW = 3 w1=2 w2=2 0.1 2015-03-09 17:54:00
1 2015-03-10 12:00:00 rrr = 4.9 y WW = 3 w1=1 w2=1 4.9 2015-03-10 11:57:00
1 2015-03-13 12:00:00 rrr = 1.2 y WW = 2 w1=2 w2=2 1.2 2015-03-13 11:54:00
1 2015-03-13 18:00:00 rrr = 0.3 y WW = 3 w1=2 w2=2 0.3 2015-03-13 17:56:00
1 2015-03-16 12:00:00 rrr = 0.1 y WW = 3 w1=2 w2=2 0.1 2015-03-16 12:01:00
1 2015-03-17 12:00:00 rrr = 0.1 y WW = 3 w1=2 w2=2 0.1 2015-03-17 11:56:00
1 2015-03-20 12:00:00 rrr = 0.3 y WW = 3 w1=1 w2=1 0.3 2015-03-20 11:55:00
1 2015-03-21 18:00:00 rrr = 0.2 y WW = 3 w1=2 w2=2 0.2 2015-03-21 17:58:00
1 2015-03-24 12:00:00 rrr = 0.1 y WW = 0 w1=0 w2=0 0.1 2015-03-24 11:58:00
1 2015-03-25 18:00:00 rrr = 2.7 y WW = 16 w1=2 w2=2 2.7 2015-03-25 17:59:00
1 2015-03-28 18:00:00 rrr = s/p y WW = 51 w1=5 w2=2 0.0 2015-03-28 17:54:00
1 2015-03-30 18:00:00 rrr = s/p y WW = 3 w1=8 w2=2 0.0 2015-03-30 17:55:00
1 2015-03-31 12:00:00 rrr = 0.7 y WW = 2 w1=1 w2=0 0.7 2015-03-31 11:51:00
1 2015-04-06 18:00:00 rrr = 0.2 y WW = 1 w1=0 w2=0 0.2 2015-04-06 18:02:00
1 2015-04-08 18:00:00 rrr = 0.2 y WW = 3 w1=1 w2=1 0.2 2015-04-08 17:57:00
1 2015-04-09 12:00:00 rrr = 0.3 y WW = 3 w1=1 w2=1 0.3 2015-04-09 11:59:00
1 2015-04-14 12:00:00 rrr = 0.1 y WW = 2 w1=2 w2=2 0.1 2015-04-14 11:50:00
1 2015-04-20 12:00:00 rrr = 1.5 y WW = 2 w1=2 w2=2 1.5 2015-04-20 11:59:00
1 2015-04-21 12:00:00 rrr = 0.1 y WW = 3 w1=1 w2=1 0.1 2015-04-21 11:57:00
1 2015-04-22 12:00:00 rrr = 0.2 y WW = 2 w1=2 w2=2 0.2 2015-04-22 11:52:00
1 2015-04-23 18:00:00 rrr = 0.5 y WW = 2 w1=1 w2=0 0.5 2015-04-23 17:59:00
1 2015-04-28 12:00:00 rrr = trazas y WW = 2 w1=2 w2=2 0.0 2015-04-28 11:51:00
1 2015-04-30 12:00:00 rrr = trazas y WW = 2 w1=2 w2=1 0.0 2015-04-30 11:46:00
1 2015-05-12 12:00:00 rrr = 0.1 y WW = 1 w1=2 w2=2 0.1 2015-05-12 12:01:00
1 2015-05-13 12:00:00 rrr = 4.7 y WW = 2 w1=1 w2=0 4.7 2015-05-13 11:58:00
1 2015-05-15 12:00:00 rrr = trazas y WW = 1 w1=0 w2=0 0.0 2015-05-15 11:54:00
1 2015-05-20 18:00:00 rrr = s/p y WW = 81 w1=8 w2=2 0.0 2015-05-20 17:51:00
1 2015-06-07 12:00:00 rrr = trazas y WW = 2 w1=2 w2=1 0.0 2015-06-07 11:49:00
1 2015-06-07 18:00:00 rrr = 1.1 y WW = 2 w1=2 w2=1 1.1 2015-06-07 17:42:00
1 2015-06-09 12:00:00 rrr = 0.2 y WW = 2 w1=0 w2=0 0.2 2015-06-09 11:54:00
1 2015-06-11 12:00:00 rrr = 1.5 y WW = 3 w1=2 w2=2 1.5 2015-06-11 13:58:00
1 2015-06-15 12:00:00 rrr = 18.0 y WW = 3 w1=1 w2=1 18.0 2015-06-15 14:57:00
1 2015-06-16 18:00:00 rrr = 5.0 y WW = 2 w1=2 w2=2 5.0 2015-06-16 17:59:00
1 2015-06-19 12:00:00 rrr = 0.1 y WW = 2 w1=2 w2=2 0.1 2015-06-19 11:59:00
1 2015-06-20 12:00:00 rrr = 0.1 y WW = 2 w1=2 w2=1 0.1 2015-06-20 12:00:00
1 2015-06-22 12:00:00 rrr = 7.3 y WW = 3 w1=0 w2=0 7.3 2015-06-22 12:01:00
1 2015-06-23 12:00:00 rrr = trazas y WW = 3 w1=1 w2=1 0.0 2015-06-23 11:52:00
1 2015-07-01 12:00:00 rrr = 4.4 y WW = 16 w1=2 w2=2 4.4 2015-07-01 14:23:00
1 2015-07-01 18:00:00 rrr = 4.0 y WW = 3 w1=1 w2=1 4.0 2015-07-01 17:57:00
1 2015-07-02 12:00:00 rrr = 0.3 y WW = 3 w1=2 w2=2 0.3 2015-07-02 12:00:00
1 2015-07-06 12:00:00 rrr = 0.1 y WW = 3 w1=2 w2=2 0.1 2015-07-06 11:56:00
1 2015-07-18 18:00:00 rrr = 0.8 y WW = 1 w1=1 w2=1 0.8 2015-07-18 17:57:00
1 2015-07-26 12:00:00 rrr = 0.1 y WW = 40 w1=2 w2=2 0.1 2015-07-26 12:00:00
1 2015-08-03 12:00:00 rrr = 0.1 y WW = 2 w1=2 w2=2 0.1 2015-08-03 12:00:00
1 2015-08-03 18:00:00 rrr = 1.8 y WW = 1 w1=2 w2=2 1.8 2015-08-03 17:53:00
1 2015-08-04 12:00:00 rrr = 3.0 y WW = 3 w1=0 w2=0 3.0 2015-08-04 11:49:00
1 2015-08-05 18:00:00 rrr = 1.3 y WW = 3 w1=2 w2=2 1.3 2015-08-05 17:59:00
1 2015-08-10 12:00:00 rrr = s/p y WW = 51 w1=2 w2=2 0.0 2015-08-10 12:00:00
1 2015-08-10 18:00:00 rrr = 0.5 y WW = 3 w1=2 w2=2 0.5 2015-08-10 17:56:00
1 2015-08-12 12:00:00 rrr = 2.8 y WW = 2 w1=2 w2=1 2.8 2015-08-12 11:51:00
1 2015-08-19 12:00:00 rrr = 30.0 y WW = 2 w1=2 w2=2 30.0 2015-08-19 11:58:00
1 2015-08-24 12:00:00 rrr = trazas y WW = 2 w1=2 w2=1 0.0 2015-08-24 11:59:00
1 2015-08-31 12:00:00 rrr = 4.0 y WW = 3 w1=0 w2=0 4.0 2015-08-31 12:01:00
1 2015-09-02 12:00:00 rrr = trazas y WW = 2 w1=0 w2=0 0.0 2015-09-02 11:59:00
1 2015-09-08 18:00:00 rrr = 3.6 y WW = 3 w1=1 w2=1 3.6 2015-09-08 17:59:00
1 2015-09-10 12:00:00 rrr = 10.0 y WW = 15 w1=2 w2=2 10.0 2015-09-10 11:59:00
1 2015-09-11 18:00:00 rrr = 0.2 y WW = 3 w1=1 w2=1 0.2 2015-09-11 17:58:00
1 2015-10-20 12:00:00 rrr = 0.2 y WW = 2 w1=2 w2=2 0.2 2015-10-20 12:02:00
1 2015-10-20 18:00:00 rrr = 1.1 y WW = 3 w1=2 w2=2 1.1 2015-10-20 17:55:00
1 2015-10-21 12:00:00 rrr = 0.1 y WW = 1 w1=2 w2=2 0.1 2015-10-21 11:59:00
1 2015-10-29 12:00:00 rrr = 0.7 y WW = 3 w1=1 w2=1 0.7 2015-10-29 11:58:00
1 2015-10-30 18:00:00 rrr = 0.6 y WW = 1 w1=2 w2=2 0.6 2015-10-30 17:53:00
1 2015-11-05 12:00:00 rrr = 0.7 y WW = 2 w1=2 w2=2 0.7 2015-11-05 11:57:00
1 2015-11-09 12:00:00 rrr = 0.5 y WW = 2 w1=2 w2=2 0.5 2015-11-09 11:59:00
1 2015-11-11 12:00:00 rrr = 0.6 y WW = 1 w1=2 w2=1 0.6 2015-11-11 11:56:00
1 2015-11-11 18:00:00 rrr = s/p y WW = 1 w1=8 w2=2 0.0 2015-11-11 17:58:00
1 2015-11-13 12:00:00 rrr = 0.1 y WW = 3 w1=0 w2=0 0.1 2015-11-13 11:53:00
1 2015-11-17 12:00:00 rrr = 3.3 y WW = 3 w1=2 w2=2 3.3 2015-11-17 11:58:00
1 2015-11-20 18:00:00 rrr = 0.1 y WW = 1 w1=2 w2=2 0.1 2015-11-20 18:01:00
1 2015-11-22 18:00:00 rrr = 0.3 y WW = 3 w1=2 w2=2 0.3 2015-11-22 17:57:00
1 2015-11-23 12:00:00 rrr = trazas y WW = 3 w1=2 w2=2 0.0 2015-11-23 12:01:00
1 2015-11-29 12:00:00 rrr = 5.0 y WW = 2 w1=2 w2=1 5.0 2015-11-29 11:56:00
1 2015-11-30 12:00:00 rrr = 0.6 y WW = 3 w1=2 w2=2 0.6 2015-11-30 11:58:00
1 2015-12-01 18:00:00 rrr = 0.6 y WW = 1 w1=1 w2=1 0.6 2015-12-01 17:56:00
1 2015-12-03 12:00:00 rrr = 1.5 y WW = 3 w1=2 w2=2 1.5 2015-12-03 11:59:00
1 2015-12-04 12:00:00 rrr = 0.7 y WW = 3 w1=2 w2=2 0.7 2015-12-14 12:02:00
1 2015-12-09 12:00:00 rrr = 0.8 y WW = 3 w1=2 w2=2 0.8 2015-12-14 14:40:00
1 2015-12-11 18:00:00 rrr = 0.4 y WW = 3 w1=2 w2=2 0.4 2015-12-11 17:55:00
1 2015-12-14 12:00:00 rrr = 0.5 y WW = 3 w1=2 w2=2 0.5 2015-12-14 12:00:00
1 2015-12-16 12:00:00 rrr = trazas y WW = 2 w1=2 w2=2 0.0 2015-12-16 11:57:00
1 2015-12-19 12:00:00 rrr = trazas y WW = 2 w1=1 w2=1 0.0 2015-12-19 12:15:00
1 2015-12-22 12:00:00 rrr = 0.1 y WW = 2 w1=2 w2=2 0.1 2015-12-22 11:58:00
1 2015-12-22 18:00:00 rrr = s/p y WW = 50 w1=8 w2=2 0.0 2015-12-22 18:00:00
1 2015-12-23 12:00:00 rrr = 0.8 y WW = 1 w1=1 w2=1 0.8 2015-12-23 11:57:00
1 2015-12-23 18:00:00 rrr = trazas y WW = 1 w1=2 w2=2 0.0 2015-12-23 17:59:00
1 2015-12-24 12:00:00 rrr = 3.8 y WW = 2 w1=2 w2=2 3.8 2015-12-24 11:55:00
1 2015-12-25 12:00:00 rrr = s/p y WW = 80 w1=8 w2=2 0.0 2015-12-25 11:55:00
1 2015-12-31 12:00:00 rrr = 0.2 y WW = 3 w1=2 w2=2 0.2 2015-12-31 12:02:00
1 2016-01-02 18:00:00 rrr = s/p y WW = 0 w1=8 w2=2 0.0 2016-01-02 17:52:00
1 2016-01-04 18:00:00 rrr = s/p y WW = 2 w1=8 w2=2 0.0 2016-01-04 17:51:00
1 2016-01-06 12:00:00 rrr = 0.2 y WW = 2 w1=2 w2=2 0.2 2016-01-06 11:54:00
1 2016-01-07 18:00:00 rrr = s/p y WW = 80 w1=5 w2=2 0.0 2016-01-07 17:53:00
1 2016-01-08 12:00:00 rrr = 3.7 y WW = 3 w1=2 w2=2 3.7 2016-01-08 11:55:00
1 2016-01-18 18:00:00 rrr = trazas y WW = 3 w1=2 w2=2 0.0 2016-01-18 17:53:00
1 2016-01-19 18:00:00 rrr = s/p y WW = 2 w1=8 w2=2 0.0 2016-01-19 17:56:00
1 2016-01-22 12:00:00 rrr = 2.0 y WW = 2 w1=2 w2=1 2.0 2016-01-22 11:59:00
1 2016-01-25 12:00:00 rrr = trazas y WW = 2 w1=2 w2=2 0.0 2016-01-25 11:58:00
1 2016-01-27 00:00:00 rrr = 0.2 y WW = 1 w1=2 w2=2 0.2 2016-02-01 19:11:00
1 2016-01-28 00:00:00 rrr = 0.2 y WW = 1 w1=2 w2=2 0.2 2016-01-28 00:04:00
1 2016-01-29 12:00:00 rrr = trazas y WW = 2 w1=2 w2=2 0.0 2016-01-29 11:58:00
1 2016-01-30 12:00:00 rrr = trazas y WW = 2 w1=2 w2=2 0.0 2016-01-30 11:57:00
1 2016-02-01 12:00:00 rrr = 2.0 y WW = 2 w1=2 w2=2 2.0 2016-02-01 11:54:00
1 2016-02-01 18:00:00 rrr = trazas y WW = 2 w1=2 w2=2 0.0 2016-02-01 17:56:00
1 2016-02-04 12:00:00 rrr = 0.2 y WW = 1 w1=2 w2=2 0.2 2016-02-04 11:57:00
1 2016-02-08 18:00:00 rrr = 0.1 y WW = 3 w1=2 w2=2 0.1 2016-02-08 17:59:00
1 2016-02-09 12:00:00 rrr = 1.2 y WW = 3 w1=0 w2=0 1.2 2016-02-09 11:57:00
1 2016-02-10 12:00:00 rrr = 7.2 y WW = 2 w1=2 w2=1 7.2 2016-02-10 11:56:00
1 2016-02-11 12:00:00 rrr = 1.3 y WW = 3 w1=2 w2=2 1.3 2016-02-11 11:53:00
1 2016-02-13 12:00:00 rrr = 0.6 y WW = 2 w1=1 w2=1 0.6 2016-02-13 11:53:00
1 2016-02-16 12:00:00 rrr = 0.3 y WW = 2 w1=1 w2=0 0.3 2016-02-16 11:54:00
1 2016-02-17 12:00:00 rrr = 0.3 y WW = 3 w1=2 w2=2 0.3 2016-02-17 11:59:00
1 2016-02-18 12:00:00 rrr = 0.6 y WW = 3 w1=2 w2=2 0.6 2016-02-18 11:58:00
1 2016-02-22 12:00:00 rrr = 0.2 y WW = 3 w1=2 w2=2 0.2 2016-02-22 11:58:00
1 2016-02-24 12:00:00 rrr = 2.6 y WW = 2 w1=2 w2=2 2.6 2016-02-24 11:59:00
1 2016-02-25 12:00:00 rrr = 0.7 y WW = 3 w1=2 w2=2 0.7 2016-02-25 11:55:00
1 2016-02-25 18:00:00 rrr = s/p y WW = 50 w1=5 w2=2 0.0 2016-02-25 17:56:00
1 2016-03-01 12:00:00 rrr = 1.4 y WW = 2 w1=2 w2=2 1.4 2016-03-01 11:54:00
1 2016-03-04 12:00:00 rrr = 1.1 y WW = 3 w1=2 w2=2 1.1 2016-03-04 11:56:00
1 2016-03-05 00:00:00 rrr = 0.1 y WW = 2 w1=2 w2=2 0.1 2016-03-04 23:57:00
1 2016-03-11 12:00:00 rrr = 0.4 y WW = 3 w1=2 w2=2 0.4 2016-03-11 11:55:00
1 2016-03-20 12:00:00 rrr = 0.1 y WW = 3 w1=2 w2=2 0.1 2016-03-20 11:58:00
1 2016-03-21 18:00:00 rrr = 2.2 y WW = 2 w1=2 w2=2 2.2 2016-03-21 17:52:00
1 2016-03-22 12:00:00 rrr = 0.6 y WW = 2 w1=0 w2=0 0.6 2016-03-22 12:00:00
1 2016-03-28 12:00:00 rrr = 0.2 y WW = 1 w1=2 w2=2 0.2 2016-03-28 12:01:00
1 2016-04-01 12:00:00 rrr = 0.1 y WW = 2 w1=2 w2=2 0.1 2016-04-01 11:54:00
1 2016-04-01 18:00:00 rrr = s/p y WW = 51 w1=8 w2=2 0.0 2016-04-01 17:52:00
1 2016-04-06 18:00:00 rrr = trazas y WW = 2 w1=2 w2=1 0.0 2016-04-06 17:57:00
1 2016-04-07 12:00:00 rrr = 2.2 y WW = 2 w1=1 w2=0 2.2 2016-04-07 11:56:00
1 2016-04-11 12:00:00 rrr = 0.1 y WW = 2 w1=2 w2=2 0.1 2016-04-11 12:00:00
1 2016-04-12 12:00:00 rrr = 1.8 y WW = 2 w1=2 w2=2 1.8 2016-04-12 12:00:00
1 2016-04-13 18:00:00 rrr = trazas y WW = 2 w1=2 w2=2 0.0 2016-04-13 17:56:00
1 2016-04-15 12:00:00 rrr = 1.5 y WW = 2 w1=2 w2=0 1.5 2016-04-15 11:59:00
1 2016-04-18 12:00:00 rrr = 1.2 y WW = 2 w1=2 w2=2 1.2 2016-05-12 18:58:00
1 2016-04-20 12:00:00 rrr = 0.9 y WW = 2 w1=2 w2=2 0.9 2016-04-20 11:57:00
1 2016-04-21 12:00:00 rrr = 3.3 y WW = 16 w1=2 w2=2 3.3 2016-04-21 12:07:00
1 2016-04-21 18:00:00 rrr = 1.8 y WW = 3 w1=2 w2=2 1.8 2016-04-21 17:58:00
1 2016-04-25 18:00:00 rrr = 0.3 y WW = 1 w1=1 w2=1 0.3 2016-04-25 17:56:00
1 2016-04-27 12:00:00 rrr = 0.1 y WW = 3 w1=2 w2=2 0.1 2016-04-27 11:54:00
1 2016-04-27 18:00:00 rrr = 0.2 y WW = 16 w1=2 w2=2 0.2 2016-04-27 17:56:00
1 2016-04-28 12:00:00 rrr = 1.5 y WW = 3 w1=1 w2=1 1.5 2016-04-28 11:50:00
1 2016-05-02 12:00:00 rrr = 0.8 y WW = 3 w1=2 w2=2 0.8 2016-05-02 12:00:00
1 2016-05-03 18:00:00 rrr = 0.1 y WW = 1 w1=2 w2=2 0.1 2016-05-03 17:57:00
1 2016-05-04 18:00:00 rrr = trazas y WW = 2 w1=2 w2=2 0.0 2016-05-04 17:57:00
1 2016-05-05 00:00:00 rrr = trazas y WW = 2 w1=2 w2=2 0.0 2016-05-04 23:58:00
1 2016-05-05 12:00:00 rrr = trazas y WW = 2 w1=2 w2=1 0.0 2016-05-05 11:53:00
1